Observation data for Guadalupe Mtns Park on 08/14/2020      Previous  Date       Current Mesonet Observations  Soil Data  Daily Summary Page  Observations in Plain Language
KGU1 140500Z 02004KT 28/05 A3021 RMK A01 T02810051  RH  024%=      5-min Rain = 0
KGU1 140501Z 02005KT 28/05 A3021 RMK A01 T02790051  RH  024%=      5-min Rain = 0
KGU1 140502Z 02007KT 28/05 A3021 RMK A01 T02780051  RH  024%=      5-min Rain = 0
KGU1 140503Z 02005KT 28/05 A3021 RMK A01 T02780051  RH  024%=      5-min Rain = 0
KGU1 140504Z 01005KT 28/05 A3021 RMK A01 T02770052  RH  024%=      5-min Rain = 0
KGU1 140505Z 01005KT 28/05 A3021 RMK A01 T02760052  RH  024%=      5-min Rain = 0
KGU1 140506Z 01004KT 28/05 A3021 RMK A01 T02760051  RH  024%=      5-min Rain = 0
KGU1 140507Z 01004KT 28/05 A3021 RMK A01 T02760051  RH  024%=      5-min Rain = 0
KGU1 140508Z 01005KT 28/05 A3021 RMK A01 T02760051  RH  024%=      5-min Rain = 0
KGU1 140509Z 01004KT 28/05 A3021 RMK A01 T02760051  RH  024%=      5-min Rain = 0
KGU1 140510Z 02002KT 28/05 A3021 RMK A01 T02750052  RH  025%=      5-min Rain = 0
KGU1 140511Z 02002KT 27/05 A3021 RMK A01 T02740052  RH  025%=      5-min Rain = 0
KGU1 140512Z 03002KT 27/05 A3021 RMK A01 T02720051  RH  025%=      5-min Rain = 0
KGU1 140513Z 02003KT 27/05 A3021 RMK A01 T02720051  RH  025%=      5-min Rain = 0
KGU1 140514Z 02004KT 27/05 A3021 RMK A01 T02720051  RH  025%=      5-min Rain = 0
KGU1 140515Z 01003KT 27/05 A3021 RMK A01 T02740050  RH  024%=      5-min Rain = 0
KGU1 140516Z 00003KT 28/05 A3021 RMK A01 T02760051  RH  024%=      5-min Rain = 0
KGU1 140517Z 35004KT 28/05 A3021 RMK A01 T02760052  RH  024%=      5-min Rain = 0
KGU1 140518Z 35004KT 28/05 A3021 RMK A01 T02750052  RH  025%=      5-min Rain = 0
KGU1 140519Z 34004KT 28/05 A3021 RMK A01 T02750052  RH  025%=      5-min Rain = 0
KGU1 140520Z 34004KT 28/05 A3021 RMK A01 T02750051  RH  025%=      5-min Rain = 0
KGU1 140521Z 34003KT 28/05 A3021 RMK A01 T02750052  RH  025%=      5-min Rain = 0
KGU1 140522Z 34003KT 28/05 A3021 RMK A01 T02750052  RH  025%=      5-min Rain = 0
KGU1 140523Z 33002KT 27/05 A3021 RMK A01 T02740052  RH  025%=      5-min Rain = 0
KGU1 140524Z 33002KT 27/05 A3021 RMK A01 T02720053  RH  025%=      5-min Rain = 0
KGU1 140525Z 31003KT 27/05 A3021 RMK A01 T02700054  RH  026%=      5-min Rain = 0
KGU1 140526Z 31003KT 27/06 A3021 RMK A01 T02660055  RH  026%=      5-min Rain = 0
KGU1 140527Z 31002KT 26/06 A3021 RMK A01 T02620055  RH  027%=      5-min Rain = 0
KGU1 140528Z 31003KT 26/06 A3021 RMK A01 T02600055  RH  027%=      5-min Rain = 0
KGU1 140529Z 31002KT 26/05 A3021 RMK A01 T02600052  RH  027%=      5-min Rain = 0
KGU1 140530Z 29002KT 26/05 A3021 RMK A01 T02610053  RH  027%=      5-min Rain = 0
KGU1 140531Z 30001KT 26/05 A3021 RMK A01 T02610053  RH  027%=      5-min Rain = 0
KGU1 140532Z 04001KT 26/05 A3021 RMK A01 T02610054  RH  027%=      5-min Rain = 0
KGU1 140533Z 35001KT 26/05 A3021 RMK A01 T02610054  RH  027%=      5-min Rain = 0
KGU1 140534Z 04001KT 26/05 A3021 RMK A01 T02600053  RH  027%=      5-min Rain = 0
KGU1 140535Z 05002KT 26/05 A3021 RMK A01 T02600052  RH  027%=      5-min Rain = 0
KGU1 140536Z 06003KT 26/05 A3021 RMK A01 T02610051  RH  027%=      5-min Rain = 0
KGU1 140537Z 04002KT 26/05 A3021 RMK A01 T02640050  RH  026%=      5-min Rain = 0
KGU1 140538Z 06002KT 27/05 A3021 RMK A01 T02700050  RH  025%=      5-min Rain = 0
KGU1 140539Z 09003KT 27/05 A3021 RMK A01 T02730051  RH  025%=      5-min Rain = 0
KGU1 140540Z 12002KT 28/05 A3021 RMK A01 T02750050  RH  024%=      5-min Rain = 0
KGU1 140541Z 10002KT 28/05 A3021 RMK A01 T02770049  RH  024%=      5-min Rain = 0
KGU1 140542Z 08000KT 28/05 A3021 RMK A01 T02790050  RH  024%=      5-min Rain = 0
KGU1 140543Z 00000KT 28/05 A3021 RMK A01 T02790053  RH  024%=      5-min Rain = 0
KGU1 140544Z 00000KT 28/05 A3021 RMK A01 T02770053  RH  025%=      5-min Rain = 0
KGU1 140545Z 29000KT 28/05 A3021 RMK A01 T02750052  RH  025%=      5-min Rain = 0
KGU1 140546Z 29001KT 27/05 A3021 RMK A01 T02730052  RH  025%=      5-min Rain = 0
KGU1 140547Z 31002KT 27/05 A3021 RMK A01 T02730050  RH  025%=      5-min Rain = 0
KGU1 140548Z 34002KT 28/05 A3021 RMK A01 T02750049  RH  024%=      5-min Rain = 0
KGU1 140549Z 33001KT 28/05 A3021 RMK A01 T02790051  RH  024%=      5-min Rain = 0
KGU1 140550Z 35002KT 28/05 A3021 RMK A01 T02780052  RH  024%=      5-min Rain = 0
KGU1 140551Z 35001KT 28/05 A3021 RMK A01 T02770051  RH  024%=      5-min Rain = 0
KGU1 140552Z 01002KT 28/05 A3021 RMK A01 T02780051  RH  024%=      5-min Rain = 0
KGU1 140553Z 00002KT 28/05 A3021 RMK A01 T02790050  RH  024%=      5-min Rain = 0
KGU1 140554Z 35002KT 28/05 A3021 RMK A01 T02800052  RH  024%=      5-min Rain = 0
KGU1 140555Z 34003KT 28/05 A3021 RMK A01 T02770054  RH  025%=      5-min Rain = 0
KGU1 140556Z 34003KT 27/06 A3021 RMK A01 T02700055  RH  026%=      5-min Rain = 0
KGU1 140557Z 34004KT 26/06 A3021 RMK A01 T02630057  RH  027%=      5-min Rain = 0
KGU1 140558Z 33004KT 26/06 A3021 RMK A01 T02580056  RH  028%=      5-min Rain = 0
KGU1 140559Z 31004KT 25/06 A3021 RMK A01 T02530056  RH  029%=      5-min Rain = 0
KGU1 140600Z 30004KT 25/06 A3021 RMK A01 T02500057  RH  030%=      5-min Rain = 0
KGU1 140601Z 28004KT 25/06 A3021 RMK A01 T02460057  RH  030%=      5-min Rain = 0
KGU1 140602Z 27004KT 24/06 A3021 RMK A01 T02440055  RH  030%=      5-min Rain = 0
KGU1 140603Z 27005KT 24/06 A3021 RMK A01 T02440055  RH  030%=      5-min Rain = 0
KGU1 140604Z 27006KT 24/06 A3021 RMK A01 T02440055  RH  030%=      5-min Rain = 0
KGU1 140605Z 27006KT 25/05 A3021 RMK A01 T02450054  RH  030%=      5-min Rain = 0
KGU1 140606Z 28007KT 25/05 A3021 RMK A01 T02460054  RH  030%=      5-min Rain = 0
KGU1 140607Z 28007KT 25/06 A3021 RMK A01 T02450055  RH  030%=      5-min Rain = 0
KGU1 140608Z 29006KT 24/06 A3021 RMK A01 T02440056  RH  030%=      5-min Rain = 0
KGU1 140609Z 29007KT 24/06 A3021 RMK A01 T02430056  RH  031%=      5-min Rain = 0
KGU1 140610Z 28007KT 24/06 A3021 RMK A01 T02420056  RH  031%=      5-min Rain = 0
KGU1 140611Z 29008KT 24/06 A3021 RMK A01 T02410056  RH  031%=      5-min Rain = 0
KGU1 140612Z 29006KT 24/06 A3021 RMK A01 T02410056  RH  031%=      5-min Rain = 0
KGU1 140613Z 30007KT 24/06 A3021 RMK A01 T02410056  RH  031%=      5-min Rain = 0
KGU1 140614Z 29007KT 24/06 A3021 RMK A01 T02420055  RH  030%=      5-min Rain = 0
KGU1 140615Z 30006KT 24/05 A3021 RMK A01 T02440054  RH  030%=      5-min Rain = 0
KGU1 140616Z 30007KT 25/05 A3021 RMK A01 T02450054  RH  030%=      5-min Rain = 0
KGU1 140617Z 29007KT 25/06 A3021 RMK A01 T02450055  RH  030%=      5-min Rain = 0
KGU1 140618Z 29006KT 24/06 A3021 RMK A01 T02440055  RH  030%=      5-min Rain = 0
KGU1 140619Z 29007KT 24/06 A3021 RMK A01 T02430056  RH  031%=      5-min Rain = 0
KGU1 140620Z 29008KT 24/06 A3021 RMK A01 T02430055  RH  031%=      5-min Rain = 0
KGU1 140621Z 29007KT 24/05 A3021 RMK A01 T02430054  RH  030%=      5-min Rain = 0
KGU1 140622Z 28007KT 24/06 A3021 RMK A01 T02440055  RH  030%=      5-min Rain = 0
KGU1 140623Z 29009KT 24/06 A3021 RMK A01 T02440055  RH  030%=      5-min Rain = 0
KGU1 140624Z 28008KT 25/05 A3021 RMK A01 T02450054  RH  030%=      5-min Rain = 0
KGU1 140625Z 29009KT 25/05 A3021 RMK A01 T02450054  RH  030%=      5-min Rain = 0
KGU1 140626Z 29008KT 25/05 A3021 RMK A01 T02460054  RH  030%=      5-min Rain = 0
KGU1 140627Z 29008KT 25/05 A3021 RMK A01 T02470054  RH  030%=      5-min Rain = 0
KGU1 140628Z 29008KT 25/05 A3021 RMK A01 T02470054  RH  029%=      5-min Rain = 0
KGU1 140629Z 29008KT 25/05 A3021 RMK A01 T02480054  RH  029%=      5-min Rain = 0
KGU1 140630Z 30009KT 25/05 A3021 RMK A01 T02490053  RH  029%=      5-min Rain = 0
KGU1 140631Z 30008KT 25/05 A3021 RMK A01 T02510053  RH  029%=      5-min Rain = 0
KGU1 140632Z 29007KT 25/05 A3021 RMK A01 T02520054  RH  029%=      5-min Rain = 0
KGU1 140633Z 29007KT 25/05 A3021 RMK A01 T02510053  RH  029%=      5-min Rain = 0
KGU1 140634Z 29007KT 25/05 A3021 RMK A01 T02510052  RH  029%=      5-min Rain = 0
KGU1 140635Z 29007KT 25/05 A3021 RMK A01 T02510052  RH  028%=      5-min Rain = 0
KGU1 140636Z 29008KT 25/05 A3021 RMK A01 T02520052  RH  028%=      5-min Rain = 0
KGU1 140637Z 29008KT 25/05 A3021 RMK A01 T02540052  RH  028%=      5-min Rain = 0
KGU1 140638Z 29007KT 25/05 A3021 RMK A01 T02540052  RH  028%=      5-min Rain = 0
KGU1 140639Z 28009KT 25/05 A3021 RMK A01 T02520053  RH  028%=      5-min Rain = 0
KGU1 140640Z 29010KT 25/05 A3021 RMK A01 T02510052  RH  028%=      5-min Rain = 0
KGU1 140641Z 29009KT 25/05 A3021 RMK A01 T02530052  RH  028%=      5-min Rain = 0
KGU1 140642Z 28009KT 25/05 A3021 RMK A01 T02540052  RH  028%=      5-min Rain = 0
KGU1 140643Z 28008KT 26/05 A3021 RMK A01 T02560052  RH  027%=      5-min Rain = 0
KGU1 140644Z 27007KT 26/05 A3021 RMK A01 T02570052  RH  027%=      5-min Rain = 0
KGU1 140645Z 28008KT 26/05 A3021 RMK A01 T02570052  RH  027%=      5-min Rain = 0
KGU1 140646Z 27008KT 26/05 A3021 RMK A01 T02560052  RH  028%=      5-min Rain = 0
KGU1 140647Z 28009KT 26/05 A3021 RMK A01 T02550052  RH  028%=      5-min Rain = 0
KGU1 140648Z 29009KT 26/05 A3021 RMK A01 T02560051  RH  027%=      5-min Rain = 0
KGU1 140649Z 28008KT 26/05 A3021 RMK A01 T02580051  RH  027%=      5-min Rain = 0
KGU1 140650Z 28007KT 26/05 A3021 RMK A01 T02590052  RH  027%=      5-min Rain = 0
KGU1 140651Z 28008KT 26/05 A3021 RMK A01 T02580052  RH  027%=      5-min Rain = 0
KGU1 140652Z 28008KT 26/05 A3021 RMK A01 T02580052  RH  027%=      5-min Rain = 0
KGU1 140653Z 28009KT 26/05 A3021 RMK A01 T02590052  RH  027%=      5-min Rain = 0
KGU1 140654Z 28009KT 26/05 A3021 RMK A01 T02580053  RH  027%=      5-min Rain = 0
KGU1 140655Z 29009KT 26/05 A3021 RMK A01 T02560053  RH  028%=      5-min Rain = 0
KGU1 140656Z 29008KT 26/05 A3021 RMK A01 T02560052  RH  028%=      5-min Rain = 0
KGU1 140657Z 28008KT 26/05 A3021 RMK A01 T02550052  RH  028%=      5-min Rain = 0
KGU1 140658Z 28008KT 25/05 A3021 RMK A01 T02540052  RH  028%=      5-min Rain = 0
KGU1 140659Z 28007KT 25/05 A3021 RMK A01 T02530053  RH  028%=      5-min Rain = 0
KGU1 140700Z 28008KT 25/05 A3021 RMK A01 T02520053  RH  028%=      5-min Rain = 0
KGU1 140701Z 29009KT 25/05 A3021 RMK A01 T02510053  RH  029%=      5-min Rain = 0
KGU1 140702Z 29008KT 25/05 A3021 RMK A01 T02510053  RH  029%=      5-min Rain = 0
KGU1 140703Z 28008KT 25/05 A3021 RMK A01 T02520052  RH  028%=      5-min Rain = 0
KGU1 140704Z 28008KT 25/05 A3021 RMK A01 T02540053  RH  028%=      5-min Rain = 0
KGU1 140705Z 29008KT 25/05 A3021 RMK A01 T02540053  RH  028%=      5-min Rain = 0
KGU1 140706Z 29008KT 25/05 A3021 RMK A01 T02530053  RH  028%=      5-min Rain = 0
KGU1 140707Z 29008KT 25/05 A3021 RMK A01 T02520053  RH  028%=      5-min Rain = 0
KGU1 140708Z 29007KT 25/05 A3021 RMK A01 T02520053  RH  028%=      5-min Rain = 0
KGU1 140709Z 29007KT 25/05 A3021 RMK A01 T02520053  RH  028%=      5-min Rain = 0
KGU1 140710Z 28007KT 25/05 A3021 RMK A01 T02520053  RH  028%=      5-min Rain = 0
KGU1 140711Z 29007KT 25/05 A3021 RMK A01 T02510053  RH  029%=      5-min Rain = 0
KGU1 140712Z 29008KT 25/05 A3021 RMK A01 T02510053  RH  028%=      5-min Rain = 0
KGU1 140713Z 29007KT 25/05 A3021 RMK A01 T02520052  RH  028%=      5-min Rain = 0
KGU1 140714Z 29007KT 25/05 A3021 RMK A01 T02530052  RH  028%=      5-min Rain = 0
KGU1 140715Z 27006KT 25/05 A3021 RMK A01 T02530053  RH  028%=      5-min Rain = 0
KGU1 140716Z 27005KT 25/05 A3021 RMK A01 T02530053  RH  028%=      5-min Rain = 0
KGU1 140717Z 27006KT 25/05 A3021 RMK A01 T02540054  RH  028%=      5-min Rain = 0
KGU1 140718Z 26005KT 25/05 A3021 RMK A01 T02530054  RH  028%=      5-min Rain = 0
KGU1 140719Z 28006KT 25/06 A3021 RMK A01 T02520055  RH  029%=      5-min Rain = 0
KGU1 140720Z 27006KT 25/06 A3021 RMK A01 T02500055  RH  029%=      5-min Rain = 0
KGU1 140721Z 27005KT 25/05 A3021 RMK A01 T02500054  RH  029%=      5-min Rain = 0
KGU1 140722Z 27006KT 25/05 A3021 RMK A01 T02520054  RH  029%=      5-min Rain = 0
KGU1 140723Z 28007KT 25/06 A3021 RMK A01 T02510055  RH  029%=      5-min Rain = 0
KGU1 140724Z 28007KT 25/06 A3021 RMK A01 T02490055  RH  029%=      5-min Rain = 0
KGU1 140725Z 28006KT 25/05 A3021 RMK A01 T02480054  RH  029%=      5-min Rain = 0
KGU1 140726Z 28006KT 25/06 A3021 RMK A01 T02470055  RH  030%=      5-min Rain = 0
KGU1 140727Z 27006KT 25/05 A3021 RMK A01 T02470054  RH  030%=      5-min Rain = 0
KGU1 140728Z 27005KT 25/05 A3021 RMK A01 T02480054  RH  029%=      5-min Rain = 0
KGU1 140729Z 26005KT 25/05 A3021 RMK A01 T02490054  RH  029%=      5-min Rain = 0
KGU1 140730Z 26006KT 25/06 A3021 RMK A01 T02490055  RH  029%=      5-min Rain = 0
KGU1 140731Z 26006KT 25/06 A3021 RMK A01 T02490055  RH  029%=      5-min Rain = 0
KGU1 140732Z 28006KT 25/06 A3021 RMK A01 T02490056  RH  030%=      5-min Rain = 0
KGU1 140733Z 29007KT 25/06 A3021 RMK A01 T02480056  RH  030%=      5-min Rain = 0
KGU1 140734Z 28007KT 25/06 A3021 RMK A01 T02470056  RH  030%=      5-min Rain = 0
KGU1 140735Z 29008KT 25/06 A3021 RMK A01 T02460055  RH  030%=      5-min Rain = 0
KGU1 140736Z 29008KT 25/06 A3021 RMK A01 T02450055  RH  030%=      5-min Rain = 0
KGU1 140737Z 29007KT 24/06 A3021 RMK A01 T02440056  RH  030%=      5-min Rain = 0
KGU1 140738Z 29007KT 24/06 A3021 RMK A01 T02440056  RH  030%=      5-min Rain = 0
KGU1 140739Z 29007KT 24/06 A3021 RMK A01 T02440055  RH  030%=      5-min Rain = 0
KGU1 140740Z 28007KT 24/06 A3021 RMK A01 T02440055  RH  030%=      5-min Rain = 0
KGU1 140741Z 28007KT 25/06 A3021 RMK A01 T02450055  RH  030%=      5-min Rain = 0
KGU1 140742Z 28007KT 25/06 A3021 RMK A01 T02450056  RH  030%=      5-min Rain = 0
KGU1 140743Z 28007KT 24/06 A3021 RMK A01 T02440056  RH  030%=      5-min Rain = 0
KGU1 140744Z 29007KT 24/06 A3021 RMK A01 T02440056  RH  031%=      5-min Rain = 0
KGU1 140745Z 29007KT 24/06 A3021 RMK A01 T02430056  RH  031%=      5-min Rain = 0
KGU1 140746Z 29007KT 25/06 A3021 RMK A01 T02450056  RH  030%=      5-min Rain = 0
KGU1 140747Z 29006KT 25/06 A3021 RMK A01 T02470056  RH  030%=      5-min Rain = 0
KGU1 140748Z 29006KT 25/06 A3021 RMK A01 T02470056  RH  030%=      5-min Rain = 0
KGU1 140749Z 29006KT 25/06 A3021 RMK A01 T02480056  RH  030%=      5-min Rain = 0
KGU1 140750Z 29007KT 25/06 A3021 RMK A01 T02480057  RH  030%=      5-min Rain = 0
KGU1 140751Z 29006KT 25/06 A3021 RMK A01 T02470058  RH  030%=      5-min Rain = 0
KGU1 140752Z 30006KT 25/06 A3021 RMK A01 T02480057  RH  030%=      5-min Rain = 0
KGU1 140753Z 29006KT 25/06 A3021 RMK A01 T02490058  RH  030%=      5-min Rain = 0
KGU1 140754Z 28006KT 25/06 A3021 RMK A01 T02480058  RH  030%=      5-min Rain = 0
KGU1 140755Z 28005KT 25/06 A3021 RMK A01 T02470058  RH  030%=      5-min Rain = 0
KGU1 140756Z 28005KT 25/06 A3021 RMK A01 T02460059  RH  031%=      5-min Rain = 0
KGU1 140757Z 27005KT 25/06 A3021 RMK A01 T02460058  RH  031%=      5-min Rain = 0
KGU1 140758Z 26005KT 25/06 A3021 RMK A01 T02450058  RH  031%=      5-min Rain = 0
KGU1 140759Z 25005KT 25/06 A3021 RMK A01 T02460057  RH  030%=      5-min Rain = 0
KGU1 140800Z 26003KT 25/06 A3021 RMK A01 T02470056  RH  030%=      5-min Rain = 0
KGU1 140801Z 26003KT 25/06 A3021 RMK A01 T02500056  RH  029%=      5-min Rain = 0
KGU1 140802Z 26004KT 25/06 A3021 RMK A01 T02510057  RH  029%=      5-min Rain = 0
KGU1 140803Z 26004KT 25/06 A3021 RMK A01 T02520056  RH  029%=      5-min Rain = 0
KGU1 140804Z 26004KT 25/06 A3021 RMK A01 T02530055  RH  029%=      5-min Rain = 0
KGU1 140805Z 27005KT 25/06 A3021 RMK A01 T02530055  RH  029%=      5-min Rain = 0
KGU1 140806Z 27006KT 25/05 A3021 RMK A01 T02500054  RH  029%=      5-min Rain = 0
KGU1 140807Z 27005KT 25/05 A3021 RMK A01 T02490050  RH  028%=      5-min Rain = 0
KGU1 140808Z 27007KT 25/05 A3021 RMK A01 T02510051  RH  028%=      5-min Rain = 0
KGU1 140809Z 27007KT 25/05 A3021 RMK A01 T02500051  RH  028%=      5-min Rain = 0
KGU1 140810Z 27008KT 25/05 A3021 RMK A01 T02490050  RH  028%=      5-min Rain = 0
KGU1 140811Z 26011KT 25/05 A3021 RMK A01 T02480047  RH  028%=      5-min Rain = 0
KGU1 140812Z 26008KT 25/03 A3021 RMK A01 T02540031  RH  024%=      5-min Rain = 0
KGU1 140813Z 25006KT 26/03 A3021 RMK A01 T02630033  RH  023%=      5-min Rain = 0
KGU1 140814Z 26006KT 27/04 A3021 RMK A01 T02660035  RH  023%=      5-min Rain = 0
KGU1 140815Z 25005KT 27/04 A3021 RMK A01 T02670035  RH  023%=      5-min Rain = 0
KGU1 140816Z 25005KT 27/04 A3021 RMK A01 T02660035  RH  023%=      5-min Rain = 0
KGU1 140817Z 26004KT 27/04 A3021 RMK A01 T02650037  RH  023%=      5-min Rain = 0
KGU1 140818Z 27005KT 26/04 A3021 RMK A01 T02630037  RH  024%=      5-min Rain = 0
KGU1 140819Z 26007KT 26/04 A3021 RMK A01 T02610037  RH  024%=      5-min Rain = 0
KGU1 140820Z 26007KT 26/03 A3021 RMK A01 T02610032  RH  023%=      5-min Rain = 0
KGU1 140821Z 26006KT 26/03 A3021 RMK A01 T02620033  RH  023%=      5-min Rain = 0
KGU1 140822Z 27007KT 26/03 A3021 RMK A01 T02620033  RH  023%=      5-min Rain = 0
KGU1 140823Z 26006KT 26/03 A3021 RMK A01 T02600034  RH  024%=      5-min Rain = 0
KGU1 140824Z 27007KT 26/03 A3021 RMK A01 T02580032  RH  024%=      5-min Rain = 0
KGU1 140825Z 26006KT 26/03 A3021 RMK A01 T02560031  RH  024%=      5-min Rain = 0
KGU1 140826Z 25006KT 26/03 A3021 RMK A01 T02570026  RH  023%=      5-min Rain = 0
KGU1 140827Z 25004KT 26/02 A3021 RMK A01 T02610022  RH  021%=      5-min Rain = 0
KGU1 140828Z 27005KT 27/02 A3021 RMK A01 T02650023  RH  021%=      5-min Rain = 0
KGU1 140829Z 28006KT 27/03 A3021 RMK A01 T02650029  RH  022%=      5-min Rain = 0
KGU1 140830Z 26007KT 26/03 A3021 RMK A01 T02630030  RH  023%=      5-min Rain = 0
KGU1 140831Z 27007KT 26/03 A3021 RMK A01 T02620027  RH  022%=      5-min Rain = 0
KGU1 140832Z 29007KT 26/03 A3021 RMK A01 T02610028  RH  022%=      5-min Rain = 0
KGU1 140833Z 29006KT 26/03 A3021 RMK A01 T02590033  RH  024%=      5-min Rain = 0
KGU1 140834Z 28008KT 26/03 A3021 RMK A01 T02570034  RH  024%=      5-min Rain = 0
KGU1 140835Z 28009KT 26/03 A3021 RMK A01 T02550032  RH  024%=      5-min Rain = 0
KGU1 140836Z 29008KT 26/03 A3021 RMK A01 T02550030  RH  024%=      5-min Rain = 0
KGU1 140837Z 28009KT 26/03 A3021 RMK A01 T02550031  RH  024%=      5-min Rain = 0
KGU1 140838Z 29008KT 25/03 A3021 RMK A01 T02540029  RH  024%=      5-min Rain = 0
KGU1 140839Z 29008KT 25/03 A3021 RMK A01 T02540028  RH  023%=      5-min Rain = 0
KGU1 140840Z 29007KT 25/03 A3021 RMK A01 T02540029  RH  024%=      5-min Rain = 0
KGU1 140841Z 28007KT 25/03 A3021 RMK A01 T02540028  RH  023%=      5-min Rain = 0
KGU1 140842Z 28006KT 25/03 A3021 RMK A01 T02540027  RH  023%=      5-min Rain = 0
KGU1 140843Z 28006KT 25/03 A3021 RMK A01 T02540027  RH  023%=      5-min Rain = 0
KGU1 140844Z 27006KT 25/03 A3021 RMK A01 T02540028  RH  023%=      5-min Rain = 0
KGU1 140845Z 28007KT 25/03 A3021 RMK A01 T02520028  RH  024%=      5-min Rain = 0
KGU1 140846Z 27006KT 25/03 A3021 RMK A01 T02520025  RH  023%=      5-min Rain = 0
KGU1 140847Z 26006KT 25/02 A3021 RMK A01 T02530023  RH  023%=      5-min Rain = 0
KGU1 140848Z 26005KT 26/02 A3021 RMK A01 T02570020  RH  022%=      5-min Rain = 0
KGU1 140849Z 26006KT 26/02 A3021 RMK A01 T02610019  RH  021%=      5-min Rain = 0
KGU1 140850Z 27005KT 26/02 A3021 RMK A01 T02620022  RH  021%=      5-min Rain = 0
KGU1 140851Z 27005KT 26/02 A3021 RMK A01 T02620022  RH  021%=      5-min Rain = 0
KGU1 140852Z 26005KT 26/02 A3021 RMK A01 T02600022  RH  022%=      5-min Rain = 0
KGU1 140853Z 26005KT 26/02 A3021 RMK A01 T02590022  RH  022%=      5-min Rain = 0
KGU1 140854Z 27004KT 26/02 A3021 RMK A01 T02570023  RH  022%=      5-min Rain = 0
KGU1 140855Z 27006KT 25/02 A302 RMK A01 T02540023  RH  023%=      5-min Rain = 0
KGU1 140856Z 28006KT 25/02 A302 RMK A01 T02520022  RH  023%=      5-min Rain = 0
KGU1 140857Z 28006KT 25/02 A302 RMK A01 T02510021  RH  023%=      5-min Rain = 0
KGU1 140858Z 27006KT 25/02 A302 RMK A01 T02510022  RH  023%=      5-min Rain = 0
KGU1 140859Z 27006KT 25/02 A302 RMK A01 T02500023  RH  023%=      5-min Rain = 0
KGU1 140900Z 28006KT 25/02 A302 RMK A01 T02480023  RH  023%=      5-min Rain = 0
KGU1 140901Z 27006KT 25/02 A302 RMK A01 T02470021  RH  023%=      5-min Rain = 0
KGU1 140902Z 26006KT 25/02 A302 RMK A01 T02460022  RH  023%=      5-min Rain = 0
KGU1 140903Z 29007KT 25/02 A302 RMK A01 T02460021  RH  023%=      5-min Rain = 0
KGU1 140904Z 28006KT 25/02 A302 RMK A01 T02460019  RH  023%=      5-min Rain = 0
KGU1 140905Z 27006KT 25/02 A302 RMK A01 T02470020  RH  023%=      5-min Rain = 0
KGU1 140906Z 28007KT 25/02 A302 RMK A01 T02470021  RH  023%=      5-min Rain = 0
KGU1 140907Z 27006KT 25/02 A302 RMK A01 T02470020  RH  023%=      5-min Rain = 0
KGU1 140908Z 27006KT 25/02 A302 RMK A01 T02470019  RH  023%=      5-min Rain = 0
KGU1 140909Z 27006KT 25/02 A302 RMK A01 T02470020  RH  023%=      5-min Rain = 0
KGU1 140910Z 27006KT 25/02 A302 RMK A01 T02460019  RH  023%=      5-min Rain = 0
KGU1 140911Z 27005KT 25/02 A302 RMK A01 T02460020  RH  023%=      5-min Rain = 0
KGU1 140912Z 27005KT 24/02 A302 RMK A01 T02440020  RH  023%=      5-min Rain = 0
KGU1 140913Z 28006KT 24/02 A302 RMK A01 T02440020  RH  023%=      5-min Rain = 0
KGU1 140914Z 27005KT 24/02 A302 RMK A01 T02430020  RH  023%=      5-min Rain = 0
KGU1 140915Z 27005KT 24/02 A302 RMK A01 T02430019  RH  023%=      5-min Rain = 0
KGU1 140916Z 27006KT 24/02 A302 RMK A01 T02420020  RH  024%=      5-min Rain = 0
KGU1 140917Z 27005KT 24/02 A302 RMK A01 T02420020  RH  024%=      5-min Rain = 0
KGU1 140918Z 26005KT 24/02 A302 RMK A01 T02410020  RH  024%=      5-min Rain = 0
KGU1 140919Z 27004KT 24/02 A302 RMK A01 T02420019  RH  024%=      5-min Rain = 0
KGU1 140920Z 27005KT 24/02 A302 RMK A01 T02420021  RH  024%=      5-min Rain = 0
KGU1 140921Z 28006KT 24/02 A302 RMK A01 T02400022  RH  024%=      5-min Rain = 0
KGU1 140922Z 27006KT 24/02 A302 RMK A01 T02380023  RH  025%=      5-min Rain = 0
KGU1 140923Z 25006KT 24/02 A302 RMK A01 T02360022  RH  025%=      5-min Rain = 0
KGU1 140924Z 25006KT 24/02 A302 RMK A01 T02370022  RH  025%=      5-min Rain = 0
KGU1 140925Z 25006KT 24/02 A302 RMK A01 T02370023  RH  025%=      5-min Rain = 0
KGU1 140926Z 25006KT 24/02 A302 RMK A01 T02370024  RH  025%=      5-min Rain = 0
KGU1 140927Z 25006KT 24/03 A302 RMK A01 T02360025  RH  025%=      5-min Rain = 0
KGU1 140928Z 24006KT 24/03 A302 RMK A01 T02360025  RH  026%=      5-min Rain = 0
KGU1 140929Z 25006KT 24/03 A302 RMK A01 T02350026  RH  026%=      5-min Rain = 0
KGU1 140930Z 25007KT 24/03 A302 RMK A01 T02350026  RH  026%=      5-min Rain = 0
KGU1 140931Z 26006KT 24/03 A302 RMK A01 T02350027  RH  026%=      5-min Rain = 0
KGU1 140932Z 26006KT 23/03 A302 RMK A01 T02330026  RH  026%=      5-min Rain = 0
KGU1 140933Z 25007KT 23/03 A302 RMK A01 T02310025  RH  026%=      5-min Rain = 0
KGU1 140934Z 24007KT 23/03 A302 RMK A01 T02310026  RH  026%=      5-min Rain = 0
KGU1 140935Z 25007KT 23/03 A302 RMK A01 T02310026  RH  026%=      5-min Rain = 0
KGU1 140936Z 25006KT 23/03 A302 RMK A01 T02330026  RH  026%=      5-min Rain = 0
KGU1 140937Z 25006KT 24/03 A302 RMK A01 T02360027  RH  026%=      5-min Rain = 0
KGU1 140938Z 25006KT 24/03 A302 RMK A01 T02390028  RH  026%=      5-min Rain = 0
KGU1 140939Z 24006KT 24/03 A302 RMK A01 T02410030  RH  026%=      5-min Rain = 0
KGU1 140940Z 24006KT 24/03 A302 RMK A01 T02430030  RH  025%=      5-min Rain = 0
KGU1 140941Z 24006KT 25/03 A302 RMK A01 T02460031  RH  025%=      5-min Rain = 0
KGU1 140942Z 25004KT 24/03 A302 RMK A01 T02440032  RH  026%=      5-min Rain = 0
KGU1 140943Z 25005KT 24/03 A302 RMK A01 T02370031  RH  027%=      5-min Rain = 0
KGU1 140944Z 26006KT 23/03 A302 RMK A01 T02310031  RH  027%=      5-min Rain = 0
KGU1 140945Z 27007KT 23/03 A302 RMK A01 T02280030  RH  028%=      5-min Rain = 0
KGU1 140946Z 26006KT 23/03 A302 RMK A01 T02270029  RH  028%=      5-min Rain = 0
KGU1 140947Z 26007KT 23/03 A302 RMK A01 T02270030  RH  028%=      5-min Rain = 0
KGU1 140948Z 26007KT 23/03 A302 RMK A01 T02280030  RH  028%=      5-min Rain = 0
KGU1 140949Z 25005KT 23/03 A302 RMK A01 T02290029  RH  027%=      5-min Rain = 0
KGU1 140950Z 24006KT 23/03 A302 RMK A01 T02310031  RH  027%=      5-min Rain = 0
KGU1 140951Z 24006KT 23/03 A302 RMK A01 T02330032  RH  027%=      5-min Rain = 0
KGU1 140952Z 24007KT 24/03 A302 RMK A01 T02390033  RH  027%=      5-min Rain = 0
KGU1 140953Z 23007KT 25/03 A302 RMK A01 T02460034  RH  026%=      5-min Rain = 0
KGU1 140954Z 23007KT 25/03 A302 RMK A01 T02510033  RH  025%=      5-min Rain = 0
KGU1 140955Z 23007KT 26/03 A302 RMK A01 T02550034  RH  024%=      5-min Rain = 0
KGU1 140956Z 23008KT 26/03 A302 RMK A01 T02570034  RH  024%=      5-min Rain = 0
KGU1 140957Z 24007KT 26/04 A302 RMK A01 T02580035  RH  024%=      5-min Rain = 0
KGU1 140958Z 24007KT 26/04 A302 RMK A01 T02580035  RH  024%=      5-min Rain = 0
KGU1 140959Z 24007KT 26/04 A302 RMK A01 T02580035  RH  024%=      5-min Rain = 0
KGU1 141000Z 24007KT 26/04 A302 RMK A01 T02590036  RH  024%=      5-min Rain = 0
KGU1 141001Z 24007KT 26/04 A302 RMK A01 T02600037  RH  024%=      5-min Rain = 0
KGU1 141002Z 24007KT 26/04 A302 RMK A01 T02600038  RH  024%=      5-min Rain = 0
KGU1 141003Z 24008KT 26/04 A3019 RMK A01 T02600037  RH  024%=      5-min Rain = 0
KGU1 141004Z 24007KT 26/04 A3019 RMK A01 T02600037  RH  024%=      5-min Rain = 0
KGU1 141005Z 24008KT 26/04 A3019 RMK A01 T02600037  RH  024%=      5-min Rain = 0
KGU1 141006Z 24008KT 26/04 A3019 RMK A01 T02610038  RH  024%=      5-min Rain = 0
KGU1 141007Z 24008KT 26/04 A3019 RMK A01 T02610038  RH  024%=      5-min Rain = 0
KGU1 141008Z 24007KT 26/04 A3019 RMK A01 T02620040  RH  024%=      5-min Rain = 0
KGU1 141009Z 24007KT 26/04 A3019 RMK A01 T02620040  RH  024%=      5-min Rain = 0
KGU1 141010Z 24007KT 26/04 A3019 RMK A01 T02610041  RH  025%=      5-min Rain = 0
KGU1 141011Z 24007KT 26/04 A3019 RMK A01 T02610042  RH  025%=      5-min Rain = 0
KGU1 141012Z 24007KT 26/04 A3019 RMK A01 T02610043  RH  025%=      5-min Rain = 0
KGU1 141013Z 24006KT 26/04 A3019 RMK A01 T02610044  RH  025%=      5-min Rain = 0
KGU1 141014Z 24007KT 26/05 A3019 RMK A01 T02610045  RH  025%=      5-min Rain = 0
KGU1 141015Z 24007KT 26/05 A3019 RMK A01 T02610046  RH  026%=      5-min Rain = 0
KGU1 141016Z 24007KT 26/05 A3019 RMK A01 T02610047  RH  026%=      5-min Rain = 0
KGU1 141017Z 25006KT 26/05 A3019 RMK A01 T02610047  RH  026%=      5-min Rain = 0
KGU1 141018Z 25006KT 26/05 A3019 RMK A01 T02600048  RH  026%=      5-min Rain = 0
KGU1 141019Z 25005KT 26/05 A3019 RMK A01 T02580048  RH  026%=      5-min Rain = 0
KGU1 141020Z 29008KT 25/05 A302 RMK A01 T02520048  RH  027%=      5-min Rain = 0
KGU1 141021Z 29009KT 25/05 A302 RMK A01 T02450045  RH  028%=      5-min Rain = 0
KGU1 141022Z 28009KT 25/04 A302 RMK A01 T02470041  RH  027%=      5-min Rain = 0
KGU1 141023Z 28009KT 25/04 A302 RMK A01 T02520040  RH  026%=      5-min Rain = 0
KGU1 141024Z 26008KT 26/04 A3019 RMK A01 T02550040  RH  025%=      5-min Rain = 0
KGU1 141025Z 26009KT 26/04 A3019 RMK A01 T02570038  RH  025%=      5-min Rain = 0
KGU1 141026Z 27009KT 26/03 A3019 RMK A01 T02600033  RH  023%=      5-min Rain = 0
KGU1 141027Z 27010KT 26/03 A3019 RMK A01 T02630030  RH  023%=      5-min Rain = 0
KGU1 141028Z 28011KT 26/03 A3019 RMK A01 T02640030  RH  022%=      5-min Rain = 0
KGU1 141029Z 29012KT 26/03 A3019 RMK A01 T02630028  RH  022%=      5-min Rain = 0
KGU1 141030Z 29009KT 27/03 A3019 RMK A01 T02650028  RH  022%=      5-min Rain = 0
KGU1 141031Z 28009KT 27/03 A3019 RMK A01 T02670031  RH  022%=      5-min Rain = 0
KGU1 141032Z 29011KT 27/03 A3019 RMK A01 T02690032  RH  022%=      5-min Rain = 0
KGU1 141033Z 29010KT 27/03 A3019 RMK A01 T02710031  RH  022%=      5-min Rain = 0
KGU1 141034Z 29008KT 27/03 A3019 RMK A01 T02710032  RH  022%=      5-min Rain = 0
KGU1 141035Z 27006KT 27/03 A3019 RMK A01 T02700034  RH  022%=      5-min Rain = 0
KGU1 141036Z 27006KT 27/04 A3019 RMK A01 T02680035  RH  023%=      5-min Rain = 0
KGU1 141037Z 28007KT 27/04 A3019 RMK A01 T02660036  RH  023%=      5-min Rain = 0
KGU1 141038Z 27007KT 26/04 A3019 RMK A01 T02640036  RH  023%=      5-min Rain = 0
KGU1 141039Z 27008KT 26/04 A3019 RMK A01 T02630036  RH  023%=      5-min Rain = 0
KGU1 141040Z 28009KT 26/04 A3019 RMK A01 T02630036  RH  023%=      5-min Rain = 0
KGU1 141041Z 28008KT 26/04 A3019 RMK A01 T02620036  RH  024%=      5-min Rain = 0
KGU1 141042Z 28007KT 26/04 A3019 RMK A01 T02600036  RH  024%=      5-min Rain = 0
KGU1 141043Z 28007KT 26/04 A3019 RMK A01 T02590036  RH  024%=      5-min Rain = 0
KGU1 141044Z 28007KT 26/04 A3019 RMK A01 T02580035  RH  024%=      5-min Rain = 0
KGU1 141045Z 27007KT 26/04 A3019 RMK A01 T02580035  RH  024%=      5-min Rain = 0
KGU1 141046Z 27008KT 26/04 A302 RMK A01 T02570035  RH  024%=      5-min Rain = 0
KGU1 141047Z 28008KT 26/03 A302 RMK A01 T02590034  RH  024%=      5-min Rain = 0
KGU1 141048Z 27008KT 26/03 A302 RMK A01 T02600034  RH  024%=      5-min Rain = 0
KGU1 141049Z 25007KT 26/03 A302 RMK A01 T02610034  RH  024%=      5-min Rain = 0
KGU1 141050Z 25007KT 26/03 A3019 RMK A01 T02620032  RH  023%=      5-min Rain = 0
KGU1 141051Z 24007KT 26/03 A302 RMK A01 T02640032  RH  023%=      5-min Rain = 0
KGU1 141052Z 25007KT 27/03 A302 RMK A01 T02660034  RH  023%=      5-min Rain = 0
KGU1 141053Z 26007KT 27/03 A302 RMK A01 T02670034  RH  023%=      5-min Rain = 0
KGU1 141054Z 26007KT 27/04 A302 RMK A01 T02660035  RH  023%=      5-min Rain = 0
KGU1 141055Z 26006KT 27/04 A302 RMK A01 T02650035  RH  023%=      5-min Rain = 0
KGU1 141056Z 25006KT 26/03 A302 RMK A01 T02640034  RH  023%=      5-min Rain = 0
KGU1 141057Z 26006KT 26/03 A302 RMK A01 T02630034  RH  023%=      5-min Rain = 0
KGU1 141058Z 26007KT 26/03 A302 RMK A01 T02620034  RH  023%=      5-min Rain = 0
KGU1 141059Z 27006KT 26/03 A302 RMK A01 T02600033  RH  023%=      5-min Rain = 0
KGU1 141100Z 26007KT 26/04 A302 RMK A01 T02590035  RH  024%=      5-min Rain = 0
KGU1 141101Z 25008KT 26/04 A302 RMK A01 T02580036  RH  024%=      5-min Rain = 0
KGU1 141102Z 25008KT 26/04 A302 RMK A01 T02590039  RH  025%=      5-min Rain = 0
KGU1 141103Z 26007KT 26/04 A302 RMK A01 T02600041  RH  025%=      5-min Rain = 0
KGU1 141104Z 26007KT 26/04 A302 RMK A01 T02600043  RH  025%=      5-min Rain = 0
KGU1 141105Z 25006KT 26/04 A302 RMK A01 T02590043  RH  025%=      5-min Rain = 0
KGU1 141106Z 26006KT 26/04 A302 RMK A01 T02570043  RH  026%=      5-min Rain = 0
KGU1 141107Z 26007KT 26/04 A302 RMK A01 T02580044  RH  026%=      5-min Rain = 0
KGU1 141108Z 26007KT 26/04 A302 RMK A01 T02580044  RH  026%=      5-min Rain = 0
KGU1 141109Z 27006KT 26/05 A302 RMK A01 T02560046  RH  026%=      5-min Rain = 0
KGU1 141110Z 26007KT 25/05 A302 RMK A01 T02530045  RH  027%=      5-min Rain = 0
KGU1 141111Z 25006KT 25/05 A302 RMK A01 T02520045  RH  027%=      5-min Rain = 0
KGU1 141112Z 25007KT 25/05 A302 RMK A01 T02530046  RH  027%=      5-min Rain = 0
KGU1 141113Z 25007KT 26/05 A302 RMK A01 T02550046  RH  027%=      5-min Rain = 0
KGU1 141114Z 24006KT 26/05 A302 RMK A01 T02570046  RH  026%=      5-min Rain = 0
KGU1 141115Z 24007KT 26/04 A302 RMK A01 T02580044  RH  026%=      5-min Rain = 0
KGU1 141116Z 25005KT 26/04 A302 RMK A01 T02590043  RH  025%=      5-min Rain = 0
KGU1 141117Z 25005KT 26/04 A302 RMK A01 T02590041  RH  025%=      5-min Rain = 0
KGU1 141118Z 26005KT 26/04 A302 RMK A01 T02590037  RH  024%=      5-min Rain = 0
KGU1 141119Z 26005KT 26/04 A302 RMK A01 T02600037  RH  024%=      5-min Rain = 0
KGU1 141120Z 27007KT 26/04 A302 RMK A01 T02590035  RH  024%=      5-min Rain = 0
KGU1 141121Z 26007KT 26/03 A302 RMK A01 T02600030  RH  023%=      5-min Rain = 0
KGU1 141122Z 26007KT 26/03 A302 RMK A01 T02630028  RH  022%=      5-min Rain = 0
KGU1 141123Z 26006KT 26/03 A302 RMK A01 T02640028  RH  022%=      5-min Rain = 0
KGU1 141124Z 26006KT 27/03 A302 RMK A01 T02660028  RH  022%=      5-min Rain = 0
KGU1 141125Z 26006KT 27/03 A302 RMK A01 T02670028  RH  022%=      5-min Rain = 0
KGU1 141126Z 26006KT 27/03 A302 RMK A01 T02680028  RH  022%=      5-min Rain = 0
KGU1 141127Z 25006KT 27/03 A302 RMK A01 T02680029  RH  022%=      5-min Rain = 0
KGU1 141128Z 26006KT 27/03 A302 RMK A01 T02680030  RH  022%=      5-min Rain = 0
KGU1 141129Z 25006KT 27/03 A302 RMK A01 T02680030  RH  022%=      5-min Rain = 0
KGU1 141130Z 26006KT 27/03 A302 RMK A01 T02680031  RH  022%=      5-min Rain = 0
KGU1 141131Z 26008KT 27/03 A302 RMK A01 T02670032  RH  022%=      5-min Rain = 0
KGU1 141132Z 27008KT 27/03 A302 RMK A01 T02670031  RH  022%=      5-min Rain = 0
KGU1 141133Z 26007KT 27/03 A302 RMK A01 T02680031  RH  022%=      5-min Rain = 0
KGU1 141134Z 27007KT 27/03 A302 RMK A01 T02690030  RH  022%=      5-min Rain = 0
KGU1 141135Z 27007KT 27/03 A302 RMK A01 T02700031  RH  022%=      5-min Rain = 0
KGU1 141136Z 26007KT 27/03 A302 RMK A01 T02700031  RH  022%=      5-min Rain = 0
KGU1 141137Z 26007KT 27/03 A302 RMK A01 T02710032  RH  022%=      5-min Rain = 0
KGU1 141138Z 26006KT 27/03 A302 RMK A01 T02710034  RH  022%=      5-min Rain = 0
KGU1 141139Z 26007KT 27/04 A302 RMK A01 T02700035  RH  023%=      5-min Rain = 0
KGU1 141140Z 27007KT 27/04 A302 RMK A01 T02690036  RH  023%=      5-min Rain = 0
KGU1 141141Z 26007KT 27/04 A302 RMK A01 T02680037  RH  023%=      5-min Rain = 0
KGU1 141142Z 26008KT 27/04 A302 RMK A01 T02680038  RH  023%=      5-min Rain = 0
KGU1 141143Z 26007KT 27/04 A302 RMK A01 T02680040  RH  024%=      5-min Rain = 0
KGU1 141144Z 26006KT 27/04 A302 RMK A01 T02700041  RH  023%=      5-min Rain = 0
KGU1 141145Z 27007KT 27/04 A302 RMK A01 T02700043  RH  024%=      5-min Rain = 0
KGU1 141146Z 26008KT 27/05 A302 RMK A01 T02700045  RH  024%=      5-min Rain = 0
KGU1 141147Z 26009KT 27/05 A302 RMK A01 T02700047  RH  024%=      5-min Rain = 0
KGU1 141148Z 27007KT 27/05 A302 RMK A01 T02700048  RH  025%=      5-min Rain = 0
KGU1 141149Z 27009KT 27/05 A302 RMK A01 T02700049  RH  025%=      5-min Rain = 0
KGU1 141150Z 27008KT 27/05 A302 RMK A01 T02710051  RH  025%=      5-min Rain = 0
KGU1 141151Z 27007KT 27/05 A302 RMK A01 T02720052  RH  025%=      5-min Rain = 0
KGU1 141152Z 27007KT 27/05 A302 RMK A01 T02720053  RH  025%=      5-min Rain = 0
KGU1 141153Z 27008KT 27/05 A302 RMK A01 T02720054  RH  025%=      5-min Rain = 0
KGU1 141154Z 26009KT 27/05 A302 RMK A01 T02720053  RH  025%=      5-min Rain = 0
KGU1 141155Z 28008KT 27/05 A302 RMK A01 T02730051  RH  025%=      5-min Rain = 0
KGU1 141156Z 27007KT 27/05 A302 RMK A01 T02740051  RH  025%=      5-min Rain = 0
KGU1 141157Z 27007KT 27/05 A302 RMK A01 T02730051  RH  025%=      5-min Rain = 0
KGU1 141158Z 26008KT 27/05 A302 RMK A01 T02730053  RH  025%=      5-min Rain = 0
KGU1 141159Z 26007KT 27/05 A302 RMK A01 T02740054  RH  025%=      5-min Rain = 0
KGU1 141200Z 25007KT 28/06 A302 RMK A01 T02750055  RH  025%=      5-min Rain = 0
KGU1 141201Z 26006KT 28/06 A302 RMK A01 T02750055  RH  025%=      5-min Rain = 0
KGU1 141202Z 27007KT 28/06 A302 RMK A01 T02760055  RH  025%=      5-min Rain = 0
KGU1 141203Z 25006KT 28/05 A302 RMK A01 T02760054  RH  025%=      5-min Rain = 0
KGU1 141204Z 26008KT 28/05 A302 RMK A01 T02760054  RH  025%=      5-min Rain = 0
KGU1 141205Z 26008KT 28/05 A302 RMK A01 T02770053  RH  025%=      5-min Rain = 0
KGU1 141206Z 26005KT 28/05 A302 RMK A01 T02780054  RH  025%=      5-min Rain = 0
KGU1 141207Z 27007G12KT 28/05 A302 RMK A01 T02770053  RH  025%=      5-min Rain = 0
KGU1 141208Z 27010KT 28/05 A302 RMK A01 T02770052  RH  024%=      5-min Rain = 0
KGU1 141209Z 26008KT 28/05 A302 RMK A01 T02790052  RH  024%=      5-min Rain = 0
KGU1 141210Z 26008KT 28/05 A302 RMK A01 T02800052  RH  024%=      5-min Rain = 0
KGU1 141211Z 26008KT 28/05 A302 RMK A01 T02800052  RH  024%=      5-min Rain = 0
KGU1 141212Z 25007KT 28/05 A302 RMK A01 T02800053  RH  024%=      5-min Rain = 0
KGU1 141213Z 25006KT 28/05 A302 RMK A01 T02800053  RH  024%=      5-min Rain = 0
KGU1 141214Z 25006KT 28/05 A3021 RMK A01 T02800053  RH  024%=      5-min Rain = 0
KGU1 141215Z 25006KT 28/05 A302 RMK A01 T02800052  RH  024%=      5-min Rain = 0
KGU1 141216Z 24007KT 28/05 A302 RMK A01 T02800053  RH  024%=      5-min Rain = 0
KGU1 141217Z 25007KT 28/05 A3021 RMK A01 T02800053  RH  024%=      5-min Rain = 0
KGU1 141218Z 26007KT 28/05 A3021 RMK A01 T02800052  RH  024%=      5-min Rain = 0
KGU1 141219Z 25006KT 28/05 A3021 RMK A01 T02790051  RH  024%=      5-min Rain = 0
KGU1 141220Z 25005KT 28/05 A3021 RMK A01 T02790050  RH  024%=      5-min Rain = 0
KGU1 141221Z 26005KT 28/05 A3021 RMK A01 T02770050  RH  024%=      5-min Rain = 0
KGU1 141222Z 25006KT 28/05 A3021 RMK A01 T02760050  RH  024%=      5-min Rain = 0
KGU1 141223Z 25006KT 28/05 A3021 RMK A01 T02760050  RH  024%=      5-min Rain = 0
KGU1 141224Z 24008KT 28/05 A3021 RMK A01 T02760051  RH  024%=      5-min Rain = 0
KGU1 141225Z 24007KT 28/05 A3021 RMK A01 T02780051  RH  024%=      5-min Rain = 0
KGU1 141226Z 25007KT 28/05 A3021 RMK A01 T02790051  RH  024%=      5-min Rain = 0
KGU1 141227Z 25005KT 28/05 A3021 RMK A01 T02790051  RH  024%=      5-min Rain = 0
KGU1 141228Z 25004KT 28/05 A3021 RMK A01 T02780051  RH  024%=      5-min Rain = 0
KGU1 141229Z 24006KT 28/05 A3021 RMK A01 T02760049  RH  024%=      5-min Rain = 0
KGU1 141230Z 24006KT 28/05 A3021 RMK A01 T02760047  RH  024%=      5-min Rain = 0
KGU1 141231Z 26006KT 28/05 A3021 RMK A01 T02770048  RH  024%=      5-min Rain = 0
KGU1 141232Z 26005KT 28/05 A3021 RMK A01 T02770047  RH  024%=      5-min Rain = 0
KGU1 141233Z 28006KT 28/05 A3021 RMK A01 T02780048  RH  023%=      5-min Rain = 0
KGU1 141234Z 28008KT 28/05 A3021 RMK A01 T02780051  RH  024%=      5-min Rain = 0
KGU1 141235Z 26007KT 28/05 A3021 RMK A01 T02780051  RH  024%=      5-min Rain = 0
KGU1 141236Z 25005KT 28/05 A3021 RMK A01 T02780049  RH  024%=      5-min Rain = 0
KGU1 141237Z 27005KT 28/05 A3021 RMK A01 T02780050  RH  024%=      5-min Rain = 0
KGU1 141238Z 27007KT 28/05 A3021 RMK A01 T02780051  RH  024%=      5-min Rain = 0
KGU1 141239Z 26006KT 28/05 A3021 RMK A01 T02770052  RH  024%=      5-min Rain = 0
KGU1 141240Z 25004KT 28/05 A3021 RMK A01 T02760052  RH  024%=      5-min Rain = 0
KGU1 141241Z 28008KT 28/05 A3021 RMK A01 T02760052  RH  025%=      5-min Rain = 0
KGU1 141242Z 26008KT 28/05 A3021 RMK A01 T02770049  RH  024%=      5-min Rain = 0
KGU1 141243Z 27004KT 28/05 A3021 RMK A01 T02780049  RH  024%=      5-min Rain = 0
KGU1 141244Z 29008KT 28/05 A3021 RMK A01 T02790052  RH  024%=      5-min Rain = 0
KGU1 141245Z 27010KT 28/05 A3021 RMK A01 T02790050  RH  024%=      5-min Rain = 0
KGU1 141246Z 29010KT 28/05 A3021 RMK A01 T02800052  RH  024%=      5-min Rain = 0
KGU1 141247Z 27007KT 28/05 A3021 RMK A01 T02810053  RH  024%=      5-min Rain = 0
KGU1 141248Z 24009KT 28/05 A3021 RMK A01 T02810051  RH  024%=      5-min Rain = 0
KGU1 141249Z 25008KT 28/05 A3021 RMK A01 T02820052  RH  024%=      5-min Rain = 0
KGU1 141250Z 25006KT 28/05 A3021 RMK A01 T02820051  RH  023%=      5-min Rain = 0
KGU1 141251Z 26005KT 28/05 A3021 RMK A01 T02820053  RH  024%=      5-min Rain = 0
KGU1 141252Z 28007KT 28/05 A3021 RMK A01 T02810052  RH  024%=      5-min Rain = 0
KGU1 141253Z 25008KT 28/05 A3021 RMK A01 T02800049  RH  023%=      5-min Rain = 0
KGU1 141254Z 25007KT 28/05 A3021 RMK A01 T02810049  RH  023%=      5-min Rain = 0
KGU1 141255Z 24006KT 28/05 A3021 RMK A01 T02810049  RH  023%=      5-min Rain = 0
KGU1 141256Z 26009KT 28/05 A3021 RMK A01 T02810049  RH  023%=      5-min Rain = 0
KGU1 141257Z 27008KT 28/05 A3021 RMK A01 T02820049  RH  023%=      5-min Rain = 0
KGU1 141258Z 27007KT 28/05 A3021 RMK A01 T02820051  RH  023%=      5-min Rain = 0
KGU1 141259Z 27006KT 28/05 A3021 RMK A01 T02820050  RH  023%=      5-min Rain = 0
KGU1 141300Z 24007KT 28/05 A3021 RMK A01 T02820047  RH  023%=      5-min Rain = 0
KGU1 141301Z 24006KT 28/05 A3021 RMK A01 T02820045  RH  022%=      5-min Rain = 0
KGU1 141302Z 22005KT 28/05 A3021 RMK A01 T02820046  RH  023%=      5-min Rain = 0
KGU1 141303Z 23005KT 28/05 A3021 RMK A01 T02820047  RH  023%=      5-min Rain = 0
KGU1 141304Z 22006KT 28/05 A3021 RMK A01 T02820046  RH  023%=      5-min Rain = 0
KGU1 141305Z 22007KT 28/04 A3022 RMK A01 T02820044  RH  022%=      5-min Rain = 0
KGU1 141306Z 21005KT 28/04 A3021 RMK A01 T02840044  RH  022%=      5-min Rain = 0
KGU1 141307Z 22005KT 28/05 A3021 RMK A01 T02840050  RH  023%=      5-min Rain = 0
KGU1 141308Z 23004KT 28/05 A3022 RMK A01 T02820053  RH  024%=      5-min Rain = 0
KGU1 141309Z 24005KT 28/05 A3022 RMK A01 T02810052  RH  024%=      5-min Rain = 0
KGU1 141310Z 25005KT 28/05 A3022 RMK A01 T02810052  RH  024%=      5-min Rain = 0
KGU1 141311Z 24004KT 28/05 A3022 RMK A01 T02810052  RH  024%=      5-min Rain = 0
KGU1 141312Z 23004KT 28/05 A3022 RMK A01 T02800052  RH  024%=      5-min Rain = 0
KGU1 141313Z 25004KT 28/05 A3022 RMK A01 T02800051  RH  024%=      5-min Rain = 0
KGU1 141314Z 24004KT 28/05 A3022 RMK A01 T02800047  RH  023%=      5-min Rain = 0
KGU1 141315Z 23004KT 28/05 A3022 RMK A01 T02810048  RH  023%=      5-min Rain = 0
KGU1 141316Z 24006KT 28/05 A3022 RMK A01 T02810049  RH  023%=      5-min Rain = 0
KGU1 141317Z 27007KT 28/04 A3022 RMK A01 T02820044  RH  022%=      5-min Rain = 0
KGU1 141318Z 26002KT 28/04 A3022 RMK A01 T02830043  RH  022%=      5-min Rain = 0
KGU1 141319Z 23002KT 28/05 A3022 RMK A01 T02840046  RH  022%=      5-min Rain = 0
KGU1 141320Z 22003KT 28/05 A3022 RMK A01 T02840048  RH  023%=      5-min Rain = 0
KGU1 141321Z 22003KT 28/05 A3022 RMK A01 T02840048  RH  023%=      5-min Rain = 0
KGU1 141322Z 24002KT 28/05 A3022 RMK A01 T02830052  RH  023%=      5-min Rain = 0
KGU1 141323Z 22001KT 28/05 A3022 RMK A01 T02830051  RH  023%=      5-min Rain = 0
KGU1 141324Z 21005KT 28/05 A3022 RMK A01 T02830053  RH  024%=      5-min Rain = 0
KGU1 141325Z 22007KT 28/05 A3022 RMK A01 T02810054  RH  024%=      5-min Rain = 0
KGU1 141326Z 22008KT 28/05 A3022 RMK A01 T02810054  RH  024%=      5-min Rain = 0
KGU1 141327Z 23006KT 28/05 A3022 RMK A01 T02810054  RH  024%=      5-min Rain = 0
KGU1 141328Z 24004KT 28/06 A3022 RMK A01 T02820055  RH  024%=      5-min Rain = 0
KGU1 141329Z 24004KT 28/06 A3022 RMK A01 T02820055  RH  024%=      5-min Rain = 0
KGU1 141330Z 22004KT 28/06 A3022 RMK A01 T02820057  RH  024%=      5-min Rain = 0
KGU1 141331Z 22004KT 28/06 A3022 RMK A01 T02810057  RH  025%=      5-min Rain = 0
KGU1 141332Z 23005KT 28/06 A3022 RMK A01 T02800057  RH  025%=      5-min Rain = 0
KGU1 141333Z 22004KT 28/06 A3022 RMK A01 T02800057  RH  025%=      5-min Rain = 0
KGU1 141334Z 22005KT 28/06 A3022 RMK A01 T02790057  RH  025%=      5-min Rain = 0
KGU1 141335Z 21005KT 28/06 A3022 RMK A01 T02790058  RH  025%=      5-min Rain = 0
KGU1 141336Z 21006KT 28/06 A3022 RMK A01 T02780058  RH  025%=      5-min Rain = 0
KGU1 141337Z 21006KT 28/06 A3022 RMK A01 T02780058  RH  025%=      5-min Rain = 0
KGU1 141338Z 21005KT 28/06 A3022 RMK A01 T02770058  RH  025%=      5-min Rain = 0
KGU1 141339Z 22004KT 28/06 A3022 RMK A01 T02770058  RH  025%=      5-min Rain = 0
KGU1 141340Z 22005KT 28/06 A3022 RMK A01 T02770058  RH  025%=      5-min Rain = 0
KGU1 141341Z 21005KT 28/06 A3022 RMK A01 T02760058  RH  025%=      5-min Rain = 0
KGU1 141342Z 21006KT 28/06 A3022 RMK A01 T02760056  RH  025%=      5-min Rain = 0
KGU1 141343Z 21006KT 28/06 A3022 RMK A01 T02770057  RH  025%=      5-min Rain = 0
KGU1 141344Z 21006KT 28/06 A3022 RMK A01 T02760058  RH  026%=      5-min Rain = 0
KGU1 141345Z 21006KT 28/06 A3022 RMK A01 T02750058  RH  026%=      5-min Rain = 0
KGU1 141346Z 22006KT 28/06 A3022 RMK A01 T02750058  RH  026%=      5-min Rain = 0
KGU1 141347Z 21006KT 28/06 A3022 RMK A01 T02760057  RH  026%=      5-min Rain = 0
KGU1 141348Z 21006KT 28/06 A3022 RMK A01 T02770058  RH  025%=      5-min Rain = 0
KGU1 141349Z 21006KT 28/06 A3022 RMK A01 T02770059  RH  026%=      5-min Rain = 0
KGU1 141350Z 21006KT 28/06 A3022 RMK A01 T02780058  RH  025%=      5-min Rain = 0
KGU1 141351Z 21005KT 28/06 A3022 RMK A01 T02780060  RH  026%=      5-min Rain = 0
KGU1 141352Z 22004KT 28/06 A3023 RMK A01 T02790059  RH  025%=      5-min Rain = 0
KGU1 141353Z 21004KT 28/06 A3022 RMK A01 T02790060  RH  025%=      5-min Rain = 0
KGU1 141354Z 21005KT 28/06 A3022 RMK A01 T02790060  RH  025%=      5-min Rain = 0
KGU1 141355Z 20004KT 28/06 A3023 RMK A01 T02800062  RH  026%=      5-min Rain = 0
KGU1 141356Z 20005KT 28/06 A3023 RMK A01 T02810062  RH  026%=      5-min Rain = 0
KGU1 141357Z 21005KT 28/06 A3023 RMK A01 T02820061  RH  025%=      5-min Rain = 0
KGU1 141358Z 22005KT 28/06 A3023 RMK A01 T02840061  RH  025%=      5-min Rain = 0
KGU1 141359Z 21005KT 29/06 A3023 RMK A01 T02850061  RH  025%=      5-min Rain = 0
KGU1 141400Z 22004KT 29/06 A3023 RMK A01 T02860061  RH  025%=      5-min Rain = 0
KGU1 141401Z 21006KT 29/06 A3023 RMK A01 T02870059  RH  024%=      5-min Rain = 0
KGU1 141402Z 21006KT 29/06 A3023 RMK A01 T02880061  RH  024%=      5-min Rain = 0
KGU1 141403Z 22006KT 29/06 A3023 RMK A01 T02890061  RH  024%=      5-min Rain = 0
KGU1 141404Z 23004KT 29/06 A3023 RMK A01 T02890062  RH  024%=      5-min Rain = 0
KGU1 141405Z 24004KT 29/06 A3023 RMK A01 T02910061  RH  024%=      5-min Rain = 0
KGU1 141406Z 21006KT 29/06 A3023 RMK A01 T02930062  RH  024%=      5-min Rain = 0
KGU1 141407Z 21007KT 29/06 A3023 RMK A01 T02940060  RH  023%=      5-min Rain = 0
KGU1 141408Z 21006KT 30/06 A3023 RMK A01 T02950062  RH  023%=      5-min Rain = 0
KGU1 141409Z 21006KT 30/06 A3023 RMK A01 T02970063  RH  023%=      5-min Rain = 0
KGU1 141410Z 21007KT 30/06 A3023 RMK A01 T02990062  RH  023%=      5-min Rain = 0
KGU1 141411Z 22007KT 30/06 A3023 RMK A01 T03000061  RH  023%=      5-min Rain = 0
KGU1 141412Z 21007KT 30/06 A3023 RMK A01 T03010061  RH  023%=      5-min Rain = 0
KGU1 141413Z 22006KT 30/06 A3023 RMK A01 T03020063  RH  023%=      5-min Rain = 0
KGU1 141414Z 22007KT 30/06 A3023 RMK A01 T03020061  RH  022%=      5-min Rain = 0
KGU1 141415Z 21005KT 30/06 A3023 RMK A01 T03010062  RH  023%=      5-min Rain = 0
KGU1 141416Z 22005KT 30/06 A3023 RMK A01 T03030064  RH  023%=      5-min Rain = 0
KGU1 141417Z 23005KT 31/06 A3023 RMK A01 T03050062  RH  022%=      5-min Rain = 0
KGU1 141418Z 26008KT 31/05 A3023 RMK A01 T03070048  RH  020%=      5-min Rain = 0
KGU1 141419Z 28008KT 31/04 A3023 RMK A01 T03090038  RH  018%=      5-min Rain = 0
KGU1 141420Z 27006KT 31/04 A3023 RMK A01 T03110039  RH  018%=      5-min Rain = 0
KGU1 141421Z 27007KT 31/04 A3023 RMK A01 T03110040  RH  018%=      5-min Rain = 0
KGU1 141422Z 25006KT 31/04 A3023 RMK A01 T03110041  RH  018%=      5-min Rain = 0
KGU1 141423Z 26007KT 31/04 A3023 RMK A01 T03110038  RH  018%=      5-min Rain = 0
KGU1 141424Z 26006KT 31/04 A3023 RMK A01 T03100039  RH  018%=      5-min Rain = 0
KGU1 141425Z 25005KT 31/04 A3023 RMK A01 T03080037  RH  018%=      5-min Rain = 0
KGU1 141426Z 26006KT 31/04 A3023 RMK A01 T03080038  RH  018%=      5-min Rain = 0
KGU1 141427Z 26006KT 31/04 A3023 RMK A01 T03070036  RH  018%=      5-min Rain = 0
KGU1 141428Z 23003KT 31/04 A3023 RMK A01 T03060042  RH  019%=      5-min Rain = 0
KGU1 141429Z 25006KT 30/05 A3023 RMK A01 T03040049  RH  020%=      5-min Rain = 0
KGU1 141430Z 28003KT 30/04 A3023 RMK A01 T03020043  RH  020%=      5-min Rain = 0
KGU1 141431Z 22002KT 30/05 A3023 RMK A01 T03020045  RH  020%=      5-min Rain = 0
KGU1 141432Z 23005KT 30/05 A3023 RMK A01 T03010054  RH  022%=      5-min Rain = 0
KGU1 141433Z 22007KT 30/06 A3023 RMK A01 T02980056  RH  022%=      5-min Rain = 0
KGU1 141434Z 22006KT 30/06 A3023 RMK A01 T02960056  RH  023%=      5-min Rain = 0
KGU1 141435Z 23004KT 29/06 A3023 RMK A01 T02940055  RH  023%=      5-min Rain = 0
KGU1 141436Z 21005KT 30/06 A3023 RMK A01 T02950055  RH  022%=      5-min Rain = 0
KGU1 141437Z 21006KT 30/06 A3023 RMK A01 T02950059  RH  023%=      5-min Rain = 0
KGU1 141438Z 22006KT 30/06 A3023 RMK A01 T02950059  RH  023%=      5-min Rain = 0
KGU1 141439Z 21005KT 30/06 A3023 RMK A01 T02960059  RH  023%=      5-min Rain = 0
KGU1 141440Z 21005KT 30/06 A3023 RMK A01 T02970060  RH  023%=      5-min Rain = 0
KGU1 141441Z 21006KT 30/06 A3024 RMK A01 T02970062  RH  023%=      5-min Rain = 0
KGU1 141442Z 22007KT 30/06 A3024 RMK A01 T02980062  RH  023%=      5-min Rain = 0
KGU1 141443Z 23004KT 30/06 A3024 RMK A01 T02990063  RH  023%=      5-min Rain = 0
KGU1 141444Z 22004KT 30/07 A3024 RMK A01 T03000065  RH  023%=      5-min Rain = 0
KGU1 141445Z 22005KT 30/07 A3024 RMK A01 T03010066  RH  023%=      5-min Rain = 0
KGU1 141446Z 21006KT 30/06 A3024 RMK A01 T03010064  RH  023%=      5-min Rain = 0
KGU1 141447Z 21006KT 30/06 A3024 RMK A01 T03010062  RH  023%=      5-min Rain = 0
KGU1 141448Z 21006KT 30/06 A3024 RMK A01 T03020060  RH  022%=      5-min Rain = 0
KGU1 141449Z 22007KT 30/06 A3024 RMK A01 T03030058  RH  022%=      5-min Rain = 0
KGU1 141450Z 24005KT 31/05 A3024 RMK A01 T03050045  RH  020%=      5-min Rain = 0
KGU1 141451Z 25005KT 31/04 A3024 RMK A01 T03100041  RH  019%=      5-min Rain = 0
KGU1 141452Z 23006KT 31/05 A3024 RMK A01 T03130047  RH  019%=      5-min Rain = 0
KGU1 141453Z 22006KT 31/06 A3024 RMK A01 T03120058  RH  021%=      5-min Rain = 0
KGU1 141454Z 22007KT 31/06 A3024 RMK A01 T03110061  RH  021%=      5-min Rain = 0
KGU1 141455Z 23006KT 31/06 A3024 RMK A01 T03100059  RH  021%=      5-min Rain = 0
KGU1 141456Z 23008KT 31/06 A3024 RMK A01 T03100059  RH  021%=      5-min Rain = 0
KGU1 141457Z 23004KT 31/05 A3024 RMK A01 T03100054  RH  020%=      5-min Rain = 0
KGU1 141458Z 22007KT 31/06 A3024 RMK A01 T03110060  RH  021%=      5-min Rain = 0
KGU1 141459Z 22005KT 31/06 A3024 RMK A01 T03090060  RH  021%=      5-min Rain = 0
KGU1 141500Z 23005KT 31/06 A3024 RMK A01 T03090057  RH  021%=      5-min Rain = 0
KGU1 141501Z 25005KT 31/05 A3024 RMK A01 T03100048  RH  020%=      5-min Rain = 0
KGU1 141502Z 25006KT 31/04 A3024 RMK A01 T03130038  RH  018%=      5-min Rain = 0
KGU1 141503Z 26007KT 31/04 A3024 RMK A01 T03140038  RH  018%=      5-min Rain = 0
KGU1 141504Z 24007KT 32/04 A3024 RMK A01 T03150038  RH  018%=      5-min Rain = 0
KGU1 141505Z 23007KT 32/04 A3024 RMK A01 T03150040  RH  018%=      5-min Rain = 0
KGU1 141506Z 26007KT 32/04 A3024 RMK A01 T03150039  RH  018%=      5-min Rain = 0
KGU1 141507Z 25007KT 32/04 A3024 RMK A01 T03150037  RH  018%=      5-min Rain = 0
KGU1 141508Z 25007KT 32/04 A3024 RMK A01 T03160036  RH  017%=      5-min Rain = 0
KGU1 141509Z 26008KT 32/04 A3024 RMK A01 T03160037  RH  017%=      5-min Rain = 0
KGU1 141510Z 26007KT 32/04 A3024 RMK A01 T03160035  RH  017%=      5-min Rain = 0
KGU1 141511Z 27006KT 32/04 A3024 RMK A01 T03160037  RH  017%=      5-min Rain = 0
KGU1 141512Z 27009KT 32/04 A3024 RMK A01 T03160038  RH  018%=      5-min Rain = 0
KGU1 141513Z 26008KT 32/04 A3024 RMK A01 T03160037  RH  017%=      5-min Rain = 0
KGU1 141514Z 26008KT 32/04 A3024 RMK A01 T03160037  RH  017%=      5-min Rain = 0
KGU1 141515Z 27009KT 32/04 A3024 RMK A01 T03160037  RH  017%=      5-min Rain = 0
KGU1 141516Z 27007KT 32/04 A3024 RMK A01 T03160037  RH  017%=      5-min Rain = 0
KGU1 141517Z 26006KT 32/04 A3024 RMK A01 T03160038  RH  018%=      5-min Rain = 0
KGU1 141518Z 27006KT 32/04 A3024 RMK A01 T03160039  RH  018%=      5-min Rain = 0
KGU1 141519Z 26007KT 32/04 A3024 RMK A01 T03160039  RH  018%=      5-min Rain = 0
KGU1 141520Z 27007KT 32/04 A3024 RMK A01 T03160036  RH  017%=      5-min Rain = 0
KGU1 141521Z 28006KT 32/04 A3024 RMK A01 T03160042  RH  018%=      5-min Rain = 0
KGU1 141522Z 29006KT 32/04 A3024 RMK A01 T03170042  RH  018%=      5-min Rain = 0
KGU1 141523Z 27004KT 32/04 A3024 RMK A01 T03160042  RH  018%=      5-min Rain = 0
KGU1 141524Z 25005KT 32/04 A3024 RMK A01 T03160041  RH  018%=      5-min Rain = 0
KGU1 141525Z 29005KT 32/04 A3024 RMK A01 T03170042  RH  018%=      5-min Rain = 0
KGU1 141526Z 27005KT 32/04 A3024 RMK A01 T03170040  RH  018%=      5-min Rain = 0
KGU1 141527Z 26007KT 32/04 A3024 RMK A01 T03170039  RH  018%=      5-min Rain = 0
KGU1 141528Z 26005KT 32/04 A3024 RMK A01 T03170037  RH  017%=      5-min Rain = 0
KGU1 141529Z 28004KT 32/04 A3024 RMK A01 T03180042  RH  018%=      5-min Rain = 0
KGU1 141530Z 29005KT 32/04 A3024 RMK A01 T03190044  RH  018%=      5-min Rain = 0
KGU1 141531Z 27003KT 32/04 A3024 RMK A01 T03190041  RH  018%=      5-min Rain = 0
KGU1 141532Z 26006KT 32/04 A3024 RMK A01 T03200041  RH  018%=      5-min Rain = 0
KGU1 141533Z 29007KT 32/04 A3024 RMK A01 T03190040  RH  018%=      5-min Rain = 0
KGU1 141534Z 29006KT 32/04 A3024 RMK A01 T03190041  RH  018%=      5-min Rain = 0
KGU1 141535Z 27005KT 32/04 A3024 RMK A01 T03190040  RH  017%=      5-min Rain = 0
KGU1 141536Z 30007KT 32/04 A3024 RMK A01 T03190041  RH  018%=      5-min Rain = 0
KGU1 141537Z 28006KT 32/04 A3024 RMK A01 T03180038  RH  017%=      5-min Rain = 0
KGU1 141538Z 29007KT 32/04 A3024 RMK A01 T03180041  RH  018%=      5-min Rain = 0
KGU1 141539Z 29006KT 32/04 A3024 RMK A01 T03190042  RH  018%=      5-min Rain = 0
KGU1 141540Z 29006KT 32/04 A3024 RMK A01 T03190039  RH  018%=      5-min Rain = 0
KGU1 141541Z 27006KT 32/04 A3024 RMK A01 T03190042  RH  018%=      5-min Rain = 0
KGU1 141542Z 28005KT 32/04 A3024 RMK A01 T03190041  RH  018%=      5-min Rain = 0
KGU1 141543Z 25005KT 32/04 A3024 RMK A01 T03200039  RH  017%=      5-min Rain = 0
KGU1 141544Z 29004G9KT 32/04 A3024 RMK A01 T03210040  RH  017%=      5-min Rain = 0
KGU1 141545Z 29009KT 32/04 A3024 RMK A01 T03210038  RH  017%=      5-min Rain = 0
KGU1 141546Z 29007KT 32/04 A3024 RMK A01 T03200042  RH  018%=      5-min Rain = 0
KGU1 141547Z 27005KT 32/04 A3024 RMK A01 T03210042  RH  018%=      5-min Rain = 0
KGU1 141548Z 30005KT 32/04 A3024 RMK A01 T03210042  RH  018%=      5-min Rain = 0
KGU1 141549Z 30006KT 32/04 A3024 RMK A01 T03220041  RH  017%=      5-min Rain = 0
KGU1 141550Z 28006KT 32/04 A3024 RMK A01 T03220043  RH  018%=      5-min Rain = 0
KGU1 141551Z 28007KT 32/04 A3024 RMK A01 T03220043  RH  018%=      5-min Rain = 0
KGU1 141552Z 28005KT 32/04 A3024 RMK A01 T03220042  RH  017%=      5-min Rain = 0
KGU1 141553Z 27005KT 32/04 A3024 RMK A01 T03220041  RH  017%=      5-min Rain = 0
KGU1 141554Z 27005KT 32/04 A3024 RMK A01 T03220039  RH  017%=      5-min Rain = 0
KGU1 141555Z 26002KT 32/04 A3024 RMK A01 T03210038  RH  017%=      5-min Rain = 0
KGU1 141556Z 25001KT 32/05 A3024 RMK A01 T03210045  RH  018%=      5-min Rain = 0
KGU1 141557Z 26003KT 32/04 A3024 RMK A01 T03230043  RH  018%=      5-min Rain = 0
KGU1 141558Z 25003KT 32/04 A3024 RMK A01 T03230042  RH  017%=      5-min Rain = 0
KGU1 141559Z 25004KT 32/04 A3024 RMK A01 T03240042  RH  017%=      5-min Rain = 0
KGU1 141600Z 22002KT 32/05 A3024 RMK A01 T03240048  RH  018%=      5-min Rain = 0
KGU1 141601Z 11002KT 32/06 A3024 RMK A01 T03200060  RH  020%=      5-min Rain = 0
KGU1 141602Z 29004KT 32/05 A3024 RMK A01 T03160053  RH  020%=      5-min Rain = 0
KGU1 141603Z 28006KT 32/04 A3024 RMK A01 T03170039  RH  018%=      5-min Rain = 0
KGU1 141604Z 28005KT 32/04 A3024 RMK A01 T03190040  RH  018%=      5-min Rain = 0
KGU1 141605Z 26006KT 32/04 A3024 RMK A01 T03210040  RH  017%=      5-min Rain = 0
KGU1 141606Z 27006KT 32/04 A3024 RMK A01 T03210037  RH  017%=      5-min Rain = 0
KGU1 141607Z 29005KT 32/04 A3024 RMK A01 T03210040  RH  017%=      5-min Rain = 0
KGU1 141608Z 27005KT 32/04 A3024 RMK A01 T03220041  RH  017%=      5-min Rain = 0
KGU1 141609Z 26004KT 32/04 A3025 RMK A01 T03230042  RH  017%=      5-min Rain = 0
KGU1 141610Z 29003KT 32/04 A3025 RMK A01 T03230041  RH  017%=      5-min Rain = 0
KGU1 141611Z 30004KT 32/05 A3025 RMK A01 T03230046  RH  018%=      5-min Rain = 0
KGU1 141612Z 28004KT 32/04 A3025 RMK A01 T03230041  RH  017%=      5-min Rain = 0
KGU1 141613Z 25003KT 32/04 A3025 RMK A01 T03230041  RH  017%=      5-min Rain = 0
KGU1 141614Z 24002KT 32/05 A3025 RMK A01 T03220053  RH  019%=      5-min Rain = 0
KGU1 141615Z 24003KT 32/05 A3025 RMK A01 T03210051  RH  019%=      5-min Rain = 0
KGU1 141616Z 21003KT 32/05 A3025 RMK A01 T03180050  RH  019%=      5-min Rain = 0
KGU1 141617Z 26004KT 32/04 A3025 RMK A01 T03170044  RH  018%=      5-min Rain = 0
KGU1 141618Z 28004KT 32/04 A3025 RMK A01 T03180040  RH  018%=      5-min Rain = 0
KGU1 141619Z 29003KT 32/04 A3025 RMK A01 T03190038  RH  017%=      5-min Rain = 0
KGU1 141620Z 28004KT 32/04 A3025 RMK A01 T03210041  RH  017%=      5-min Rain = 0
KGU1 141621Z 27006KT 32/04 A3025 RMK A01 T03230042  RH  017%=      5-min Rain = 0
KGU1 141622Z 26003KT 32/05 A3025 RMK A01 T03220053  RH  019%=      5-min Rain = 0
KGU1 141623Z 28005KT 32/04 A3025 RMK A01 T03210044  RH  018%=      5-min Rain = 0
KGU1 141624Z 28008KT 32/04 A3025 RMK A01 T03200036  RH  017%=      5-min Rain = 0
KGU1 141625Z 29006KT 32/04 A3025 RMK A01 T03210037  RH  017%=      5-min Rain = 0
KGU1 141626Z 29007KT 32/04 A3025 RMK A01 T03210036  RH  017%=      5-min Rain = 0
KGU1 141627Z 30005KT 32/04 A3025 RMK A01 T03210035  RH  017%=      5-min Rain = 0
KGU1 141628Z 30006KT 32/04 A3025 RMK A01 T03210035  RH  017%=      5-min Rain = 0
KGU1 141629Z 29005KT 32/04 A3025 RMK A01 T03210035  RH  017%=      5-min Rain = 0
KGU1 141630Z 29009KT 32/04 A3025 RMK A01 T03210036  RH  017%=      5-min Rain = 0
KGU1 141631Z 29007KT 32/03 A3025 RMK A01 T03210034  RH  017%=      5-min Rain = 0
KGU1 141632Z 28005KT 32/04 A3025 RMK A01 T03210037  RH  017%=      5-min Rain = 0
KGU1 141633Z 28006KT 32/04 A3025 RMK A01 T03220038  RH  017%=      5-min Rain = 0
KGU1 141634Z 31007KT 32/04 A3025 RMK A01 T03230036  RH  017%=      5-min Rain = 0
KGU1 141635Z 30007KT 32/04 A3025 RMK A01 T03220037  RH  017%=      5-min Rain = 0
KGU1 141636Z 30008KT 32/03 A3025 RMK A01 T03220033  RH  016%=      5-min Rain = 0
KGU1 141637Z 30006KT 32/04 A3025 RMK A01 T03230039  RH  017%=      5-min Rain = 0
KGU1 141638Z 31006KT 32/04 A3025 RMK A01 T03240036  RH  017%=      5-min Rain = 0
KGU1 141639Z 29006KT 32/04 A3025 RMK A01 T03230037  RH  017%=      5-min Rain = 0
KGU1 141640Z 28004KT 32/04 A3025 RMK A01 T03240038  RH  017%=      5-min Rain = 0
KGU1 141641Z 28004KT 32/04 A3025 RMK A01 T03240036  RH  017%=      5-min Rain = 0
KGU1 141642Z 28002KT 33/03 A3025 RMK A01 T03250034  RH  016%=      5-min Rain = 0
KGU1 141643Z 31003KT 33/04 A3025 RMK A01 T03250035  RH  016%=      5-min Rain = 0
KGU1 141644Z 30006KT 33/04 A3025 RMK A01 T03250036  RH  016%=      5-min Rain = 0
KGU1 141645Z 31008KT 33/04 A3025 RMK A01 T03250037  RH  017%=      5-min Rain = 0
KGU1 141646Z 31006KT 33/04 A3025 RMK A01 T03250037  RH  017%=      5-min Rain = 0
KGU1 141647Z 30004KT 33/03 A3025 RMK A01 T03250034  RH  016%=      5-min Rain = 0
KGU1 141648Z 23005KT 33/05 A3025 RMK A01 T03250049  RH  018%=      5-min Rain = 0
KGU1 141649Z 21004KT 32/06 A3025 RMK A01 T03230061  RH  020%=      5-min Rain = 0
KGU1 141650Z 22008KT 32/06 A3025 RMK A01 T03210061  RH  020%=      5-min Rain = 0
KGU1 141651Z 23006KT 32/06 A3025 RMK A01 T03180058  RH  020%=      5-min Rain = 0
KGU1 141652Z 21005KT 32/06 A3025 RMK A01 T03170059  RH  020%=      5-min Rain = 0
KGU1 141653Z 22004KT 32/06 A3025 RMK A01 T03160061  RH  021%=      5-min Rain = 0
KGU1 141654Z 28006KT 32/06 A3025 RMK A01 T03170055  RH  020%=      5-min Rain = 0
KGU1 141655Z 24003KT 32/06 A3025 RMK A01 T03190058  RH  020%=      5-min Rain = 0
KGU1 141656Z 23005KT 32/06 A3025 RMK A01 T03210061  RH  020%=      5-min Rain = 0
KGU1 141657Z 21006KT 32/06 A3025 RMK A01 T03210058  RH  020%=      5-min Rain = 0
KGU1 141658Z 22006KT 32/06 A3025 RMK A01 T03200055  RH  019%=      5-min Rain = 0
KGU1 141659Z 21008KT 32/06 A3025 RMK A01 T03200058  RH  020%=      5-min Rain = 0
KGU1 141700Z 21006KT 32/06 A3025 RMK A01 T03210063  RH  020%=      5-min Rain = 0
KGU1 141701Z 21008KT 32/06 A3025 RMK A01 T03240062  RH  020%=      5-min Rain = 0
KGU1 141702Z 21008KT 33/06 A3025 RMK A01 T03270064  RH  020%=      5-min Rain = 0
KGU1 141703Z 20007KT 33/06 A3025 RMK A01 T03270061  RH  020%=      5-min Rain = 0
KGU1 141704Z 21008KT 33/06 A3025 RMK A01 T03260059  RH  019%=      5-min Rain = 0
KGU1 141705Z 22008KT 32/06 A3025 RMK A01 T03240060  RH  020%=      5-min Rain = 0
KGU1 141706Z 22007KT 32/06 A3025 RMK A01 T03220061  RH  020%=      5-min Rain = 0
KGU1 141707Z 21008KT 32/06 A3025 RMK A01 T03220062  RH  020%=      5-min Rain = 0
KGU1 141708Z 21008KT 32/05 A3025 RMK A01 T03220053  RH  019%=      5-min Rain = 0
KGU1 141709Z 20009KT 32/07 A3025 RMK A01 T03210065  RH  021%=      5-min Rain = 0
KGU1 141710Z 19007KT 32/07 A3025 RMK A01 T03170069  RH  022%=      5-min Rain = 0
KGU1 141711Z 18007KT 31/07 A3025 RMK A01 T03140068  RH  022%=      5-min Rain = 0
KGU1 141712Z 22006KT 31/07 A3025 RMK A01 T03130068  RH  022%=      5-min Rain = 0
KGU1 141713Z 27008KT 32/06 A3025 RMK A01 T03160055  RH  020%=      5-min Rain = 0
KGU1 141714Z 25005KT 32/04 A3025 RMK A01 T03190039  RH  017%=      5-min Rain = 0
KGU1 141715Z 24004KT 32/04 A3025 RMK A01 T03200037  RH  017%=      5-min Rain = 0
KGU1 141716Z 22006KT 32/06 A3025 RMK A01 T03210056  RH  020%=      5-min Rain = 0
KGU1 141717Z 22006KT 32/06 A3025 RMK A01 T03190061  RH  020%=      5-min Rain = 0
KGU1 141718Z 24005KT 32/06 A3025 RMK A01 T03180056  RH  020%=      5-min Rain = 0
KGU1 141719Z 23005KT 32/05 A3025 RMK A01 T03190045  RH  018%=      5-min Rain = 0
KGU1 141720Z 21003KT 32/06 A3025 RMK A01 T03180058  RH  020%=      5-min Rain = 0
KGU1 141721Z 20006KT 32/07 A3025 RMK A01 T03170065  RH  021%=      5-min Rain = 0
KGU1 141722Z 21008KT 32/07 A3025 RMK A01 T03160068  RH  022%=      5-min Rain = 0
KGU1 141723Z 21008KT 32/07 A3025 RMK A01 T03150068  RH  022%=      5-min Rain = 0
KGU1 141724Z 21008KT 31/07 A3025 RMK A01 T03130069  RH  022%=      5-min Rain = 0
KGU1 141725Z 20009KT 31/06 A3025 RMK A01 T03120063  RH  022%=      5-min Rain = 0
KGU1 141726Z 21007KT 31/06 A3025 RMK A01 T03100062  RH  022%=      5-min Rain = 0
KGU1 141727Z 19007KT 31/07 A3025 RMK A01 T03100069  RH  023%=      5-min Rain = 0
KGU1 141728Z 20007KT 31/07 A3025 RMK A01 T03090073  RH  023%=      5-min Rain = 0
KGU1 141729Z 20007KT 31/07 A3025 RMK A01 T03090070  RH  023%=      5-min Rain = 0
KGU1 141730Z 20008KT 31/07 A3025 RMK A01 T03090068  RH  023%=      5-min Rain = 0
KGU1 141731Z 20008KT 31/07 A3025 RMK A01 T03100071  RH  023%=      5-min Rain = 0
KGU1 141732Z 20008KT 31/07 A3025 RMK A01 T03080071  RH  023%=      5-min Rain = 0
KGU1 141733Z 20007KT 31/07 A3025 RMK A01 T03060071  RH  024%=      5-min Rain = 0
KGU1 141734Z 20009KT 31/07 A3025 RMK A01 T03070073  RH  024%=      5-min Rain = 0
KGU1 141735Z 21009KT 31/07 A3025 RMK A01 T03080071  RH  023%=      5-min Rain = 0
KGU1 141736Z 21006KT 31/07 A3025 RMK A01 T03080071  RH  023%=      5-min Rain = 0
KGU1 141737Z 21007KT 31/07 A3025 RMK A01 T03080069  RH  023%=      5-min Rain = 0
KGU1 141738Z 21008KT 31/07 A3025 RMK A01 T03080069  RH  023%=      5-min Rain = 0
KGU1 141739Z 21008KT 31/07 A3025 RMK A01 T03080069  RH  023%=      5-min Rain = 0
KGU1 141740Z 21009KT 31/07 A3025 RMK A01 T03090068  RH  023%=      5-min Rain = 0
KGU1 141741Z 21009KT 31/07 A3025 RMK A01 T03080068  RH  023%=      5-min Rain = 0
KGU1 141742Z 20008KT 31/07 A3025 RMK A01 T03090070  RH  023%=      5-min Rain = 0
KGU1 141743Z 21007KT 31/07 A3025 RMK A01 T03080074  RH  024%=      5-min Rain = 0
KGU1 141744Z 21008KT 31/07 A3025 RMK A01 T03080073  RH  024%=      5-min Rain = 0
KGU1 141745Z 20008KT 31/07 A3025 RMK A01 T03060073  RH  024%=      5-min Rain = 0
KGU1 141746Z 21007KT 31/07 A3025 RMK A01 T03060072  RH  024%=      5-min Rain = 0
KGU1 141747Z 21007KT 31/07 A3025 RMK A01 T03070072  RH  024%=      5-min Rain = 0
KGU1 141748Z 22007KT 31/07 A3025 RMK A01 T03090071  RH  023%=      5-min Rain = 0
KGU1 141749Z 22007KT 31/07 A3025 RMK A01 T03090070  RH  023%=      5-min Rain = 0
KGU1 141750Z 21007KT 31/07 A3025 RMK A01 T03100073  RH  023%=      5-min Rain = 0
KGU1 141751Z 21007KT 31/07 A3025 RMK A01 T03100072  RH  023%=      5-min Rain = 0
KGU1 141752Z 21005KT 31/07 A3025 RMK A01 T03110073  RH  023%=      5-min Rain = 0
KGU1 141753Z 20006KT 31/07 A3025 RMK A01 T03110069  RH  023%=      5-min Rain = 0
KGU1 141754Z 22006KT 31/07 A3025 RMK A01 T03100072  RH  023%=      5-min Rain = 0
KGU1 141755Z 23006KT 31/07 A3025 RMK A01 T03110074  RH  023%=      5-min Rain = 0
KGU1 141756Z 22007KT 31/07 A3025 RMK A01 T03120071  RH  023%=      5-min Rain = 0
KGU1 141757Z 22006KT 31/07 A3025 RMK A01 T03110070  RH  023%=      5-min Rain = 0
KGU1 141758Z 22006KT 31/07 A3025 RMK A01 T03110065  RH  022%=      5-min Rain = 0
KGU1 141759Z 22006KT 31/07 A3025 RMK A01 T03110067  RH  022%=      5-min Rain = 0
KGU1 141800Z 23007KT 31/07 A3025 RMK A01 T03130068  RH  022%=      5-min Rain = 0
KGU1 141801Z 23005KT 31/07 A3025 RMK A01 T03140068  RH  022%=      5-min Rain = 0
KGU1 141802Z 23006KT 32/05 A3025 RMK A01 T03160048  RH  019%=      5-min Rain = 0
KGU1 141803Z 22005KT 32/04 A3025 RMK A01 T03180044  RH  018%=      5-min Rain = 0
KGU1 141804Z 21005KT 32/06 A3025 RMK A01 T03200061  RH  020%=      5-min Rain = 0
KGU1 141805Z 22006KT 32/06 A3024 RMK A01 T03210064  RH  021%=      5-min Rain = 0
KGU1 141806Z 21005KT 32/07 A3024 RMK A01 T03190068  RH  021%=      5-min Rain = 0
KGU1 141807Z 22006KT 32/07 A3024 RMK A01 T03200069  RH  021%=      5-min Rain = 0
KGU1 141808Z 22006KT 32/07 A3024 RMK A01 T03230067  RH  021%=      5-min Rain = 0
KGU1 141809Z 22005KT 33/06 A3024 RMK A01 T03260064  RH  020%=      5-min Rain = 0
KGU1 141810Z 20005KT 33/07 A3024 RMK A01 T03260069  RH  021%=      5-min Rain = 0
KGU1 141811Z 19005KT 33/07 A3024 RMK A01 T03250066  RH  020%=      5-min Rain = 0
KGU1 141812Z 18004KT 32/07 A3024 RMK A01 T03230067  RH  021%=      5-min Rain = 0
KGU1 141813Z 20004KT 32/07 A3024 RMK A01 T03240067  RH  021%=      5-min Rain = 0
KGU1 141814Z 18004KT 33/06 A3024 RMK A01 T03270064  RH  020%=      5-min Rain = 0
KGU1 141815Z 22006KT 33/06 A3024 RMK A01 T03280061  RH  019%=      5-min Rain = 0
KGU1 141816Z 23005KT 33/06 A3024 RMK A01 T03280061  RH  019%=      5-min Rain = 0
KGU1 141817Z 22005KT 33/06 A3024 RMK A01 T03280062  RH  020%=      5-min Rain = 0
KGU1 141818Z 20005KT 33/06 A3024 RMK A01 T03290062  RH  019%=      5-min Rain = 0
KGU1 141819Z 18005KT 33/06 A3024 RMK A01 T03290061  RH  019%=      5-min Rain = 0
KGU1 141820Z 19006KT 33/06 A3024 RMK A01 T03270060  RH  019%=      5-min Rain = 0
KGU1 141821Z 22007KT 33/05 A3024 RMK A01 T03290049  RH  018%=      5-min Rain = 0
KGU1 141822Z 23006KT 33/05 A3024 RMK A01 T03280049  RH  018%=      5-min Rain = 0
KGU1 141823Z 23007KT 33/05 A3024 RMK A01 T03280051  RH  018%=      5-min Rain = 0
KGU1 141824Z 21005KT 33/05 A3024 RMK A01 T03260052  RH  018%=      5-min Rain = 0
KGU1 141825Z 20007KT 33/05 A3024 RMK A01 T03260051  RH  018%=      5-min Rain = 0
KGU1 141826Z 21005KT 33/05 A3024 RMK A01 T03250048  RH  018%=      5-min Rain = 0
KGU1 141827Z 20005KT 33/05 A3024 RMK A01 T03260049  RH  018%=      5-min Rain = 0
KGU1 141828Z 19004KT 33/05 A3024 RMK A01 T03260048  RH  018%=      5-min Rain = 0
KGU1 141829Z 18004KT 33/05 A3024 RMK A01 T03250049  RH  018%=      5-min Rain = 0
KGU1 141830Z 19006KT 33/05 A3024 RMK A01 T03270052  RH  018%=      5-min Rain = 0
KGU1 141831Z 18005KT 33/05 A3024 RMK A01 T03270045  RH  017%=      5-min Rain = 0
KGU1 141832Z 16006KT 33/04 A3024 RMK A01 T03260043  RH  017%=      5-min Rain = 0
KGU1 141833Z 16005KT 33/05 A3024 RMK A01 T03270046  RH  017%=      5-min Rain = 0
KGU1 141834Z 15005KT 33/04 A3024 RMK A01 T03290044  RH  017%=      5-min Rain = 0
KGU1 141835Z 16003KT 33/05 A3024 RMK A01 T03290045  RH  017%=      5-min Rain = 0
KGU1 141836Z 21006KT 34/05 A3024 RMK A01 T03350053  RH  018%=      5-min Rain = 0
KGU1 141837Z 21007KT 34/06 A3024 RMK A01 T03390055  RH  017%=      5-min Rain = 0
KGU1 141838Z 21006KT 34/06 A3024 RMK A01 T03410055  RH  017%=      5-min Rain = 0
KGU1 141839Z 21004KT 34/05 A3024 RMK A01 T03380054  RH  017%=      5-min Rain = 0
KGU1 141840Z 19008KT 34/05 A3024 RMK A01 T03350051  RH  017%=      5-min Rain = 0
KGU1 141841Z 19007KT 33/05 A3024 RMK A01 T03300050  RH  018%=      5-min Rain = 0
KGU1 141842Z 17007KT 33/05 A3024 RMK A01 T03270050  RH  018%=      5-min Rain = 0
KGU1 141843Z 20006KT 33/05 A3024 RMK A01 T03270051  RH  018%=      5-min Rain = 0
KGU1 141844Z 20004KT 33/05 A3024 RMK A01 T03280049  RH  018%=      5-min Rain = 0
KGU1 141845Z 19004KT 33/05 A3024 RMK A01 T03280049  RH  018%=      5-min Rain = 0
KGU1 141846Z 20008KT 33/05 A3024 RMK A01 T03290050  RH  018%=      5-min Rain = 0
KGU1 141847Z 19006KT 33/05 A3024 RMK A01 T03280045  RH  017%=      5-min Rain = 0
KGU1 141848Z 20004KT 33/05 A3024 RMK A01 T03250046  RH  018%=      5-min Rain = 0
KGU1 141849Z 19003KT 33/05 A3024 RMK A01 T03250047  RH  018%=      5-min Rain = 0
KGU1 141850Z 18002KT 33/05 A3024 RMK A01 T03250046  RH  018%=      5-min Rain = 0
KGU1 141851Z 18006KT 33/05 A3024 RMK A01 T03270046  RH  017%=      5-min Rain = 0
KGU1 141852Z 16005KT 33/04 A3024 RMK A01 T03250042  RH  017%=      5-min Rain = 0
KGU1 141853Z 16006KT 32/04 A3024 RMK A01 T03240044  RH  018%=      5-min Rain = 0
KGU1 141854Z 18006KT 33/05 A3024 RMK A01 T03250048  RH  018%=      5-min Rain = 0
KGU1 141855Z 17003KT 33/04 A3024 RMK A01 T03260044  RH  017%=      5-min Rain = 0
KGU1 141856Z 16004KT 33/04 A3024 RMK A01 T03250043  RH  017%=      5-min Rain = 0
KGU1 141857Z 14002KT 32/04 A3024 RMK A01 T03240042  RH  017%=      5-min Rain = 0
KGU1 141858Z 19001KT 32/04 A3024 RMK A01 T03240043  RH  017%=      5-min Rain = 0
KGU1 141859Z 17003KT 32/04 A3024 RMK A01 T03240041  RH  017%=      5-min Rain = 0
KGU1 141900Z 17002KT 33/04 A3024 RMK A01 T03250044  RH  017%=      5-min Rain = 0
KGU1 141901Z 17003KT 33/05 A3024 RMK A01 T03250045  RH  018%=      5-min Rain = 0
KGU1 141902Z 14007KT 33/05 A3023 RMK A01 T03260046  RH  018%=      5-min Rain = 0
KGU1 141903Z 16006KT 33/05 A3023 RMK A01 T03260046  RH  018%=      5-min Rain = 0
KGU1 141904Z 15005KT 33/04 A3023 RMK A01 T03260042  RH  017%=      5-min Rain = 0
KGU1 141905Z 14002KT 32/04 A3023 RMK A01 T03240038  RH  017%=      5-min Rain = 0
KGU1 141906Z 20001KT 32/04 A3023 RMK A01 T03240042  RH  017%=      5-min Rain = 0
KGU1 141907Z 19002KT 33/04 A3023 RMK A01 T03250038  RH  017%=      5-min Rain = 0
KGU1 141908Z 18002KT 33/04 A3023 RMK A01 T03260038  RH  017%=      5-min Rain = 0
KGU1 141909Z 16002KT 33/04 A3023 RMK A01 T03260040  RH  017%=      5-min Rain = 0
KGU1 141910Z 21006KT 33/05 A3023 RMK A01 T03270045  RH  017%=      5-min Rain = 0
KGU1 141911Z 21005KT 33/05 A3023 RMK A01 T03290046  RH  017%=      5-min Rain = 0
KGU1 141912Z 22007KT 33/04 A3023 RMK A01 T03290044  RH  017%=      5-min Rain = 0
KGU1 141913Z 20007KT 33/04 A3023 RMK A01 T03280043  RH  017%=      5-min Rain = 0
KGU1 141914Z 19009KT 33/04 A3023 RMK A01 T03270041  RH  017%=      5-min Rain = 0
KGU1 141915Z 19007KT 33/04 A3023 RMK A01 T03250040  RH  017%=      5-min Rain = 0
KGU1 141916Z 20007KT 33/04 A3023 RMK A01 T03250043  RH  017%=      5-min Rain = 0
KGU1 141917Z 19005KT 33/04 A3023 RMK A01 T03250044  RH  017%=      5-min Rain = 0
KGU1 141918Z 17005KT 33/05 A3023 RMK A01 T03270047  RH  018%=      5-min Rain = 0
KGU1 141919Z 15005KT 33/04 A3023 RMK A01 T03280043  RH  017%=      5-min Rain = 0
KGU1 141920Z 18005KT 33/04 A3023 RMK A01 T03270043  RH  017%=      5-min Rain = 0
KGU1 141921Z 19008KT 33/04 A3023 RMK A01 T03270042  RH  017%=      5-min Rain = 0
KGU1 141922Z 19006KT 33/04 A3023 RMK A01 T03260044  RH  017%=      5-min Rain = 0
KGU1 141923Z 17004KT 33/04 A3023 RMK A01 T03250041  RH  017%=      5-min Rain = 0
KGU1 141924Z 18004KT 32/04 A3023 RMK A01 T03240044  RH  018%=      5-min Rain = 0
KGU1 141925Z 19004KT 33/05 A3023 RMK A01 T03260045  RH  018%=      5-min Rain = 0
KGU1 141926Z 18010KT 33/04 A3023 RMK A01 T03260044  RH  017%=      5-min Rain = 0
KGU1 141927Z 19006G11KT 33/04 A3023 RMK A01 T03250042  RH  017%=      5-min Rain = 0
KGU1 141928Z 21005KT 33/04 A3023 RMK A01 T03250041  RH  017%=      5-min Rain = 0
KGU1 141929Z 20006KT 33/05 A3023 RMK A01 T03280045  RH  017%=      5-min Rain = 0
KGU1 141930Z 19008KT 33/04 A3023 RMK A01 T03300042  RH  017%=      5-min Rain = 0
KGU1 141931Z 20009KT 33/04 A3022 RMK A01 T03290042  RH  017%=      5-min Rain = 0
KGU1 141932Z 21007KT 33/04 A3023 RMK A01 T03290043  RH  017%=      5-min Rain = 0
KGU1 141933Z 20008KT 33/04 A3023 RMK A01 T03290043  RH  017%=      5-min Rain = 0
KGU1 141934Z 19007KT 33/04 A3023 RMK A01 T03280044  RH  017%=      5-min Rain = 0
KGU1 141935Z 16003KT 33/04 A3022 RMK A01 T03280043  RH  017%=      5-min Rain = 0
KGU1 141936Z 20005KT 33/05 A3022 RMK A01 T03280048  RH  018%=      5-min Rain = 0
KGU1 141937Z 21003KT 33/04 A3022 RMK A01 T03290042  RH  017%=      5-min Rain = 0
KGU1 141938Z 19003KT 33/04 A3022 RMK A01 T03290043  RH  017%=      5-min Rain = 0
KGU1 141939Z 17002KT 33/05 A3022 RMK A01 T03300045  RH  017%=      5-min Rain = 0
KGU1 141940Z 18006KT 33/05 A3022 RMK A01 T03300046  RH  017%=      5-min Rain = 0
KGU1 141941Z 21007KT 33/05 A3022 RMK A01 T03300047  RH  017%=      5-min Rain = 0
KGU1 141942Z 21006KT 33/05 A3022 RMK A01 T03300047  RH  017%=      5-min Rain = 0
KGU1 141943Z 23004KT 33/05 A3022 RMK A01 T03290048  RH  018%=      5-min Rain = 0
KGU1 141944Z 20003KT 33/05 A3022 RMK A01 T03290048  RH  018%=      5-min Rain = 0
KGU1 141945Z 19005KT 33/05 A3022 RMK A01 T03290048  RH  018%=      5-min Rain = 0
KGU1 141946Z 20005KT 33/05 A3022 RMK A01 T03300049  RH  018%=      5-min Rain = 0
KGU1 141947Z 22004KT 33/05 A3022 RMK A01 T03320050  RH  018%=      5-min Rain = 0
KGU1 141948Z 23005KT 33/05 A3022 RMK A01 T03330046  RH  017%=      5-min Rain = 0
KGU1 141949Z 24004KT 33/05 A3022 RMK A01 T03320045  RH  017%=      5-min Rain = 0
KGU1 141950Z 24006KT 33/04 A3022 RMK A01 T03310044  RH  017%=      5-min Rain = 0
KGU1 141951Z 25006KT 33/04 A3022 RMK A01 T03300044  RH  017%=      5-min Rain = 0
KGU1 141952Z 26005KT 33/05 A3022 RMK A01 T03300045  RH  017%=      5-min Rain = 0
KGU1 141953Z 28007KT 33/05 A3022 RMK A01 T03300047  RH  017%=      5-min Rain = 0
KGU1 141954Z 23007G12KT 33/05 A3022 RMK A01 T03300048  RH  017%=      5-min Rain = 0
KGU1 141955Z 21006KT 33/05 A3022 RMK A01 T03310052  RH  018%=      5-min Rain = 0
KGU1 141956Z 18005KT 33/05 A3022 RMK A01 T03330052  RH  018%=      5-min Rain = 0
KGU1 141957Z 19008KT 33/05 A3022 RMK A01 T03330050  RH  017%=      5-min Rain = 0
KGU1 141958Z 19007KT 33/05 A3022 RMK A01 T03330051  RH  017%=      5-min Rain = 0
KGU1 141959Z 20005KT 34/05 A3022 RMK A01 T03360052  RH  017%=      5-min Rain = 0
KGU1 142000Z 20004KT 34/06 A3022 RMK A01 T03420057  RH  017%=      5-min Rain = 0
KGU1 142001Z 23003KT 35/05 A3022 RMK A01 T03470052  RH  016%=      5-min Rain = 0
KGU1 142002Z 24004KT 35/05 A3021 RMK A01 T03480051  RH  016%=      5-min Rain = 0
KGU1 142003Z 20006KT 35/05 A3021 RMK A01 T03490052  RH  016%=      5-min Rain = 0
KGU1 142004Z 19005KT 35/05 A3021 RMK A01 T03460050  RH  016%=      5-min Rain = 0
KGU1 142005Z 18007KT 34/05 A3021 RMK A01 T03440049  RH  016%=      5-min Rain = 0
KGU1 142006Z 20004KT 34/05 A3021 RMK A01 T03420047  RH  016%=      5-min Rain = 0
KGU1 142007Z 21004KT 34/05 A3021 RMK A01 T03420048  RH  016%=      5-min Rain = 0
KGU1 142008Z 23006KT 34/05 A3021 RMK A01 T03430046  RH  016%=      5-min Rain = 0
KGU1 142009Z 24006KT 34/04 A3021 RMK A01 T03410043  RH  016%=      5-min Rain = 0
KGU1 142010Z 23002KT 34/05 A3021 RMK A01 T03410046  RH  016%=      5-min Rain = 0
KGU1 142011Z 22002KT 34/04 A3021 RMK A01 T03430044  RH  016%=      5-min Rain = 0
KGU1 142012Z 22004KT 34/05 A3021 RMK A01 T03440045  RH  016%=      5-min Rain = 0
KGU1 142013Z 24005KT 34/05 A3021 RMK A01 T03440045  RH  016%=      5-min Rain = 0
KGU1 142014Z 29003KT 34/04 A3021 RMK A01 T03430043  RH  016%=      5-min Rain = 0
KGU1 142015Z 17005KT 34/05 A3021 RMK A01 T03420050  RH  017%=      5-min Rain = 0
KGU1 142016Z 17007KT 35/05 A3021 RMK A01 T03470051  RH  016%=      5-min Rain = 0
KGU1 142017Z 17008KT 35/05 A3021 RMK A01 T03480048  RH  016%=      5-min Rain = 0
KGU1 142018Z 17008KT 35/05 A302 RMK A01 T03470048  RH  016%=      5-min Rain = 0
KGU1 142019Z 16009KT 35/05 A302 RMK A01 T03500048  RH  016%=      5-min Rain = 0
KGU1 142020Z 17008KT 35/05 A302 RMK A01 T03500050  RH  016%=      5-min Rain = 0
KGU1 142021Z 16010KT 35/05 A302 RMK A01 T03500048  RH  016%=      5-min Rain = 0
KGU1 142022Z 18007KT 35/05 A302 RMK A01 T03500047  RH  016%=      5-min Rain = 0
KGU1 142023Z 19007KT 35/05 A302 RMK A01 T03490045  RH  015%=      5-min Rain = 0
KGU1 142024Z 19008KT 35/04 A302 RMK A01 T03460042  RH  015%=      5-min Rain = 0
KGU1 142025Z 15003KT 34/04 A302 RMK A01 T03430039  RH  015%=      5-min Rain = 0
KGU1 142026Z 22005KT 34/04 A302 RMK A01 T03430044  RH  016%=      5-min Rain = 0
KGU1 142027Z 24004KT 34/04 A302 RMK A01 T03440040  RH  015%=      5-min Rain = 0
KGU1 142028Z 23005KT 34/04 A302 RMK A01 T03430043  RH  016%=      5-min Rain = 0
KGU1 142029Z 27007KT 35/04 A302 RMK A01 T03450043  RH  015%=      5-min Rain = 0
KGU1 142030Z 31006KT 35/04 A302 RMK A01 T03450042  RH  015%=      5-min Rain = 0
KGU1 142031Z 32007KT 34/04 A302 RMK A01 T03430042  RH  016%=      5-min Rain = 0
KGU1 142032Z 25005KT 35/05 A302 RMK A01 T03450049  RH  016%=      5-min Rain = 0
KGU1 142033Z 20008KT 35/05 A302 RMK A01 T03510047  RH  015%=      5-min Rain = 0
KGU1 142034Z 22007KT 35/04 A302 RMK A01 T03510044  RH  015%=      5-min Rain = 0
KGU1 142035Z 19003G8KT 35/04 A302 RMK A01 T03480042  RH  015%=      5-min Rain = 0
KGU1 142036Z 19010KT 35/05 A302 RMK A01 T03470048  RH  016%=      5-min Rain = 0
KGU1 142037Z 20012KT 35/05 A302 RMK A01 T03490045  RH  015%=      5-min Rain = 0
KGU1 142038Z 19008KT 35/04 A302 RMK A01 T03460040  RH  015%=      5-min Rain = 0
KGU1 142039Z 21005KT 34/04 A302 RMK A01 T03420040  RH  015%=      5-min Rain = 0
KGU1 142040Z 22006KT 34/04 A302 RMK A01 T03420042  RH  016%=      5-min Rain = 0
KGU1 142041Z 18005KT 34/04 A302 RMK A01 T03420043  RH  016%=      5-min Rain = 0
KGU1 142042Z 17005KT 34/04 A302 RMK A01 T03410043  RH  016%=      5-min Rain = 0
KGU1 142043Z 15004KT 34/04 A302 RMK A01 T03400042  RH  016%=      5-min Rain = 0
KGU1 142044Z 12002KT 34/04 A302 RMK A01 T03400041  RH  016%=      5-min Rain = 0
KGU1 142045Z 13004KT 34/04 A302 RMK A01 T03400040  RH  016%=      5-min Rain = 0
KGU1 142046Z 14003KT 34/05 A302 RMK A01 T03420045  RH  016%=      5-min Rain = 0
KGU1 142047Z 15002KT 35/04 A302 RMK A01 T03450039  RH  015%=      5-min Rain = 0
KGU1 142048Z 19004KT 34/04 A302 RMK A01 T03430039  RH  015%=      5-min Rain = 0
KGU1 142049Z 19007KT 34/04 A302 RMK A01 T03420042  RH  016%=      5-min Rain = 0
KGU1 142050Z 19006KT 34/04 A3019 RMK A01 T03400041  RH  016%=      5-min Rain = 0
KGU1 142051Z 21006KT 34/04 A3019 RMK A01 T03400043  RH  016%=      5-min Rain = 0
KGU1 142052Z 24007KT 35/05 A3019 RMK A01 T03450045  RH  016%=      5-min Rain = 0
KGU1 142053Z 22007KT 35/04 A3019 RMK A01 T03470042  RH  015%=      5-min Rain = 0
KGU1 142054Z 21006KT 35/04 A3019 RMK A01 T03470041  RH  015%=      5-min Rain = 0
KGU1 142055Z 25004KT 35/04 A3019 RMK A01 T03460039  RH  015%=      5-min Rain = 0
KGU1 142056Z 26005KT 35/04 A3019 RMK A01 T03450038  RH  015%=      5-min Rain = 0
KGU1 142057Z 24006KT 35/04 A3019 RMK A01 T03470041  RH  015%=      5-min Rain = 0
KGU1 142058Z 26004KT 35/04 A3019 RMK A01 T03470039  RH  015%=      5-min Rain = 0
KGU1 142059Z 22005KT 35/04 A3019 RMK A01 T03470043  RH  015%=      5-min Rain = 0
KGU1 142100Z 19005KT 35/04 A3019 RMK A01 T03490042  RH  015%=      5-min Rain = 0
KGU1 142101Z 18004KT 35/04 A3019 RMK A01 T03480043  RH  015%=      5-min Rain = 0
KGU1 142102Z 18003KT 35/04 A3019 RMK A01 T03470040  RH  015%=      5-min Rain = 0
KGU1 142103Z 19001KT 35/04 A3019 RMK A01 T03450038  RH  015%=      5-min Rain = 0
KGU1 142104Z 19002KT 34/04 A3019 RMK A01 T03440039  RH  015%=      5-min Rain = 0
KGU1 142105Z 20006G11KT 35/05 A3019 RMK A01 T03470046  RH  016%=      5-min Rain = 0
KGU1 142106Z 20009KT 35/05 A3018 RMK A01 T03510046  RH  015%=      5-min Rain = 0
KGU1 142107Z 19007KT 35/05 A3018 RMK A01 T03500045  RH  015%=      5-min Rain = 0
KGU1 142108Z 17005KT 35/05 A3018 RMK A01 T03500046  RH  015%=      5-min Rain = 0
KGU1 142109Z 16004KT 35/05 A3018 RMK A01 T03510048  RH  015%=      5-min Rain = 0
KGU1 142110Z 17004KT 35/05 A3018 RMK A01 T03530045  RH  015%=      5-min Rain = 0
KGU1 142111Z 15003KT 35/04 A3018 RMK A01 T03520044  RH  015%=      5-min Rain = 0
KGU1 142112Z 12004KT 35/04 A3018 RMK A01 T03520044  RH  015%=      5-min Rain = 0
KGU1 142113Z 13003KT 35/04 A3018 RMK A01 T03490042  RH  015%=      5-min Rain = 0
KGU1 142114Z 11002KT 35/04 A3018 RMK A01 T03460042  RH  015%=      5-min Rain = 0
KGU1 142115Z 12008KT 35/04 A3018 RMK A01 T03470043  RH  015%=      5-min Rain = 0
KGU1 142116Z 14005KT 35/04 A3018 RMK A01 T03450042  RH  015%=      5-min Rain = 0
KGU1 142117Z 19005KT 35/04 A3018 RMK A01 T03470044  RH  015%=      5-min Rain = 0
KGU1 142118Z 20003KT 35/04 A3018 RMK A01 T03470042  RH  015%=      5-min Rain = 0
KGU1 142119Z 23002KT 35/05 A3018 RMK A01 T03490045  RH  015%=      5-min Rain = 0
KGU1 142120Z 21003KT 35/05 A3018 RMK A01 T03520045  RH  015%=      5-min Rain = 0
KGU1 142121Z 23001KT 36/05 A3018 RMK A01 T03550047  RH  015%=      5-min Rain = 0
KGU1 142122Z 21004KT 36/05 A3018 RMK A01 T03570047  RH  015%=      5-min Rain = 0
KGU1 142123Z 22007KT 36/05 A3018 RMK A01 T03570047  RH  015%=      5-min Rain = 0
KGU1 142124Z 22004KT 36/04 A3018 RMK A01 T03560043  RH  015%=      5-min Rain = 0
KGU1 142125Z 08001KT 35/04 A3018 RMK A01 T03530043  RH  015%=      5-min Rain = 0
KGU1 142126Z 17004G9KT 35/05 A3018 RMK A01 T03520045  RH  015%=      5-min Rain = 0
KGU1 142127Z 18006KT 35/05 A3018 RMK A01 T03530047  RH  015%=      5-min Rain = 0
KGU1 142128Z 16008KT 36/05 A3018 RMK A01 T03590050  RH  015%=      5-min Rain = 0
KGU1 142129Z 16007KT 36/04 A3018 RMK A01 T03570043  RH  015%=      5-min Rain = 0
KGU1 142130Z 18003KT 35/04 A3018 RMK A01 T03510040  RH  015%=      5-min Rain = 0
KGU1 142131Z 15003KT 35/04 A3017 RMK A01 T03480044  RH  015%=      5-min Rain = 0
KGU1 142132Z 17006KT 35/05 A3017 RMK A01 T03510046  RH  015%=      5-min Rain = 0
KGU1 142133Z 19008KT 35/05 A3017 RMK A01 T03540046  RH  015%=      5-min Rain = 0
KGU1 142134Z 21006KT 35/04 A3017 RMK A01 T03520044  RH  015%=      5-min Rain = 0
KGU1 142135Z 18006KT 35/05 A3017 RMK A01 T03530046  RH  015%=      5-min Rain = 0
KGU1 142136Z 17008KT 35/05 A3017 RMK A01 T03530045  RH  015%=      5-min Rain = 0
KGU1 142137Z 16006KT 35/04 A3017 RMK A01 T03510044  RH  015%=      5-min Rain = 0
KGU1 142138Z 16008KT 35/05 A3017 RMK A01 T03530049  RH  016%=      5-min Rain = 0
KGU1 142139Z 18010KT 36/05 A3017 RMK A01 T03560046  RH  015%=      5-min Rain = 0
KGU1 142140Z 16008KT 35/04 A3017 RMK A01 T03540044  RH  015%=      5-min Rain = 0
KGU1 142141Z 16008KT 36/05 A3017 RMK A01 T03550046  RH  015%=      5-min Rain = 0
KGU1 142142Z 16005KT 35/04 A3017 RMK A01 T03540042  RH  015%=      5-min Rain = 0
KGU1 142143Z 17007KT 35/04 A3017 RMK A01 T03530044  RH  015%=      5-min Rain = 0
KGU1 142144Z 16009KT 35/05 A3017 RMK A01 T03540045  RH  015%=      5-min Rain = 0
KGU1 142145Z 15008KT 36/05 A3017 RMK A01 T03550045  RH  015%=      5-min Rain = 0
KGU1 142146Z 16008KT 35/04 A3017 RMK A01 T03540044  RH  015%=      5-min Rain = 0
KGU1 142147Z 17006KT 35/05 A3017 RMK A01 T03540045  RH  015%=      5-min Rain = 0
KGU1 142148Z 15006KT 36/05 A3017 RMK A01 T03560047  RH  015%=      5-min Rain = 0
KGU1 142149Z 16005KT 36/05 A3017 RMK A01 T03570047  RH  015%=      5-min Rain = 0
KGU1 142150Z 18008KT 36/05 A3017 RMK A01 T03570046  RH  015%=      5-min Rain = 0
KGU1 142151Z 19006G11KT 36/04 A3017 RMK A01 T03580044  RH  014%=      5-min Rain = 0
KGU1 142152Z 19009KT 36/04 A3017 RMK A01 T03560043  RH  015%=      5-min Rain = 0
KGU1 142153Z 18010KT 35/04 A3017 RMK A01 T03540044  RH  015%=      5-min Rain = 0
KGU1 142154Z 18009KT 36/04 A3017 RMK A01 T03560044  RH  015%=      5-min Rain = 0
KGU1 142155Z 18005KT 36/04 A3017 RMK A01 T03550044  RH  015%=      5-min Rain = 0
KGU1 142156Z 17004KT 36/04 A3017 RMK A01 T03550042  RH  015%=      5-min Rain = 0
KGU1 142157Z 21007KT 36/05 A3017 RMK A01 T03570047  RH  015%=      5-min Rain = 0
KGU1 142158Z 20006KT 36/04 A3017 RMK A01 T03570043  RH  014%=      5-min Rain = 0
KGU1 142159Z 22005KT 35/04 A3017 RMK A01 T03530040  RH  015%=      5-min Rain = 0
KGU1 142200Z 21005KT 35/04 A3017 RMK A01 T03500042  RH  015%=      5-min Rain = 0
KGU1 142201Z 22007KT 35/04 A3017 RMK A01 T03500043  RH  015%=      5-min Rain = 0
KGU1 142202Z 21006KT 35/04 A3017 RMK A01 T03480041  RH  015%=      5-min Rain = 0
KGU1 142203Z 20013KT 35/04 A3016 RMK A01 T03470041  RH  015%=      5-min Rain = 0
KGU1 142204Z 20011KT 35/04 A3017 RMK A01 T03450041  RH  015%=      5-min Rain = 0
KGU1 142205Z 19009KT 34/04 A3017 RMK A01 T03440040  RH  015%=      5-min Rain = 0
KGU1 142206Z 18005KT 34/04 A3017 RMK A01 T03440040  RH  015%=      5-min Rain = 0
KGU1 142207Z 20006KT 35/04 A3016 RMK A01 T03450042  RH  015%=      5-min Rain = 0
KGU1 142208Z 19007KT 35/04 A3016 RMK A01 T03490044  RH  015%=      5-min Rain = 0
KGU1 142209Z 19006KT 35/05 A3016 RMK A01 T03530048  RH  015%=      5-min Rain = 0
KGU1 142210Z 17008KT 36/05 A3016 RMK A01 T03570046  RH  015%=      5-min Rain = 0
KGU1 142211Z 16008KT 36/05 A3016 RMK A01 T03580047  RH  015%=      5-min Rain = 0
KGU1 142212Z 17008KT 36/05 A3016 RMK A01 T03580049  RH  015%=      5-min Rain = 0
KGU1 142213Z 15009KT 36/05 A3016 RMK A01 T03580046  RH  015%=      5-min Rain = 0
KGU1 142214Z 13009KT 36/04 A3016 RMK A01 T03570044  RH  015%=      5-min Rain = 0
KGU1 142215Z 11005KT 35/04 A3016 RMK A01 T03530042  RH  015%=      5-min Rain = 0
KGU1 142216Z 11006KT 35/04 A3016 RMK A01 T03500041  RH  015%=      5-min Rain = 0
KGU1 142217Z 13004KT 35/04 A3016 RMK A01 T03490042  RH  015%=      5-min Rain = 0
KGU1 142218Z 18006KT 35/05 A3016 RMK A01 T03490045  RH  015%=      5-min Rain = 0
KGU1 142219Z 21005KT 35/04 A3016 RMK A01 T03500043  RH  015%=      5-min Rain = 0
KGU1 142220Z 20005KT 35/04 A3016 RMK A01 T03490041  RH  015%=      5-min Rain = 0
KGU1 142221Z 23005KT 35/04 A3016 RMK A01 T03470042  RH  015%=      5-min Rain = 0
KGU1 142222Z 24006KT 35/04 A3016 RMK A01 T03470040  RH  015%=      5-min Rain = 0
KGU1 142223Z 26005KT 35/04 A3016 RMK A01 T03450039  RH  015%=      5-min Rain = 0
KGU1 142224Z 26004KT 35/04 A3016 RMK A01 T03470042  RH  015%=      5-min Rain = 0
KGU1 142225Z 26004G9KT 35/04 A3016 RMK A01 T03500040  RH  015%=      5-min Rain = 0
KGU1 142226Z 28008KT 35/04 A3016 RMK A01 T03530042  RH  015%=      5-min Rain = 0
KGU1 142227Z 27008KT 36/05 A3016 RMK A01 T03560045  RH  015%=      5-min Rain = 0
KGU1 142228Z 25009KT 36/04 A3016 RMK A01 T03570042  RH  014%=      5-min Rain = 0
KGU1 142229Z 23006KT 36/04 A3016 RMK A01 T03550043  RH  015%=      5-min Rain = 0
KGU1 142230Z 25004KT 36/05 A3016 RMK A01 T03570045  RH  015%=      5-min Rain = 0
KGU1 142231Z 24004KT 36/04 A3016 RMK A01 T03580043  RH  014%=      5-min Rain = 0
KGU1 142232Z 21002KT 36/04 A3016 RMK A01 T03560043  RH  015%=      5-min Rain = 0
KGU1 142233Z 20002KT 35/04 A3016 RMK A01 T03540040  RH  014%=      5-min Rain = 0
KGU1 142234Z 13003KT 35/04 A3016 RMK A01 T03540042  RH  015%=      5-min Rain = 0
KGU1 142235Z 15006KT 35/04 A3016 RMK A01 T03530043  RH  015%=      5-min Rain = 0
KGU1 142236Z 15007KT 35/04 A3016 RMK A01 T03510043  RH  015%=      5-min Rain = 0
KGU1 142237Z 15006KT 35/04 A3016 RMK A01 T03470042  RH  015%=      5-min Rain = 0
KGU1 142238Z 14006KT 35/04 A3016 RMK A01 T03460043  RH  015%=      5-min Rain = 0
KGU1 142239Z 15006KT 35/04 A3016 RMK A01 T03460044  RH  016%=      5-min Rain = 0
KGU1 142240Z 14005KT 35/04 A3016 RMK A01 T03460042  RH  015%=      5-min Rain = 0
KGU1 142241Z 15006KT 35/04 A3016 RMK A01 T03450044  RH  016%=      5-min Rain = 0
KGU1 142242Z 17005KT 35/04 A3016 RMK A01 T03450041  RH  015%=      5-min Rain = 0
KGU1 142243Z 17005KT 35/05 A3016 RMK A01 T03460045  RH  016%=      5-min Rain = 0
KGU1 142244Z 17004KT 35/05 A3016 RMK A01 T03480045  RH  015%=      5-min Rain = 0
KGU1 142245Z 17005KT 35/05 A3016 RMK A01 T03500046  RH  015%=      5-min Rain = 0
KGU1 142246Z 16006KT 35/05 A3016 RMK A01 T03520045  RH  015%=      5-min Rain = 0
KGU1 142247Z 19004KT 35/04 A3016 RMK A01 T03530044  RH  015%=      5-min Rain = 0
KGU1 142248Z 27001KT 35/04 A3016 RMK A01 T03540040  RH  014%=      5-min Rain = 0
KGU1 142249Z 22001KT 36/04 A3016 RMK A01 T03550043  RH  015%=      5-min Rain = 0
KGU1 142250Z 24003KT 36/04 A3016 RMK A01 T03590044  RH  014%=      5-min Rain = 0
KGU1 142251Z 22002KT 36/04 A3016 RMK A01 T03590043  RH  014%=      5-min Rain = 0
KGU1 142252Z 24004KT 36/04 A3016 RMK A01 T03590040  RH  014%=      5-min Rain = 0
KGU1 142253Z 24008KT 36/04 A3016 RMK A01 T03590041  RH  014%=      5-min Rain = 0
KGU1 142254Z 23008KT 36/04 A3016 RMK A01 T03570042  RH  014%=      5-min Rain = 0
KGU1 142255Z 23007KT 36/04 A3016 RMK A01 T03550042  RH  015%=      5-min Rain = 0
KGU1 142256Z 21005KT 35/04 A3016 RMK A01 T03520039  RH  015%=      5-min Rain = 0
KGU1 142257Z 24006G11KT 35/04 A3016 RMK A01 T03510040  RH  015%=      5-min Rain = 0
KGU1 142258Z 27008KT 35/04 A3016 RMK A01 T03520043  RH  015%=      5-min Rain = 0
KGU1 142259Z 27008KT 35/04 A3016 RMK A01 T03530043  RH  015%=      5-min Rain = 0
KGU1 142300Z 27006KT 35/04 A3016 RMK A01 T03520044  RH  015%=      5-min Rain = 0
KGU1 142301Z 24006KT 35/04 A3016 RMK A01 T03520042  RH  015%=      5-min Rain = 0
KGU1 142302Z 24006KT 35/04 A3016 RMK A01 T03500041  RH  015%=      5-min Rain = 0
KGU1 142303Z 27005KT 35/04 A3016 RMK A01 T03490040  RH  015%=      5-min Rain = 0
KGU1 142304Z 28003KT 35/04 A3016 RMK A01 T03470040  RH  015%=      5-min Rain = 0
KGU1 142305Z 30002KT 35/04 A3016 RMK A01 T03460040  RH  015%=      5-min Rain = 0
KGU1 142306Z 31002KT 35/04 A3016 RMK A01 T03450037  RH  015%=      5-min Rain = 0
KGU1 142307Z 28002KT 34/04 A3016 RMK A01 T03430036  RH  015%=      5-min Rain = 0
KGU1 142308Z 25001KT 34/04 A3016 RMK A01 T03430041  RH  015%=      5-min Rain = 0
KGU1 142309Z 25002KT 34/04 A3016 RMK A01 T03440042  RH  015%=      5-min Rain = 0
KGU1 142310Z 29000KT 35/04 A3016 RMK A01 T03450036  RH  015%=      5-min Rain = 0
KGU1 142311Z 27000KT 35/04 A3016 RMK A01 T03460039  RH  015%=      5-min Rain = 0
KGU1 142312Z 00000KT 35/04 A3016 RMK A01 T03480039  RH  015%=      5-min Rain = 0
KGU1 142313Z 01000KT 35/04 A3016 RMK A01 T03500040  RH  015%=      5-min Rain = 0
KGU1 142314Z 22001KT 35/04 A3016 RMK A01 T03510043  RH  015%=      5-min Rain = 0
KGU1 142315Z 21001KT 35/04 A3016 RMK A01 T03510042  RH  015%=      5-min Rain = 0
KGU1 142316Z 17004G9KT 35/04 A3016 RMK A01 T03510043  RH  015%=      5-min Rain = 0
KGU1 142317Z 15007KT 35/05 A3016 RMK A01 T03490045  RH  015%=      5-min Rain = 0
KGU1 142318Z 14007KT 35/04 A3016 RMK A01 T03470042  RH  015%=      5-min Rain = 0
KGU1 142319Z 15003KT 34/04 A3016 RMK A01 T03440044  RH  016%=      5-min Rain = 0
KGU1 142320Z 13002KT 35/05 A3016 RMK A01 T03460047  RH  016%=      5-min Rain = 0
KGU1 142321Z 15004KT 35/05 A3016 RMK A01 T03460045  RH  016%=      5-min Rain = 0
KGU1 142322Z 13005KT 35/04 A3015 RMK A01 T03450044  RH  016%=      5-min Rain = 0
KGU1 142323Z 12005KT 34/04 A3015 RMK A01 T03440042  RH  015%=      5-min Rain = 0
KGU1 142324Z 13005KT 34/04 A3015 RMK A01 T03440044  RH  016%=      5-min Rain = 0
KGU1 142325Z 11005KT 34/04 A3015 RMK A01 T03430043  RH  016%=      5-min Rain = 0
KGU1 142326Z 10006KT 34/04 A3015 RMK A01 T03420040  RH  015%=      5-min Rain = 0
KGU1 142327Z 09006KT 34/04 A3015 RMK A01 T03420043  RH  016%=      5-min Rain = 0
KGU1 142328Z 09006KT 34/04 A3015 RMK A01 T03410042  RH  016%=      5-min Rain = 0
KGU1 142329Z 10007KT 34/04 A3015 RMK A01 T03410040  RH  015%=      5-min Rain = 0
KGU1 142330Z 10005KT 34/04 A3015 RMK A01 T03400040  RH  016%=      5-min Rain = 0
KGU1 142331Z 07006KT 34/04 A3015 RMK A01 T03400041  RH  016%=      5-min Rain = 0
KGU1 142332Z 08005KT 34/04 A3015 RMK A01 T03390039  RH  016%=      5-min Rain = 0
KGU1 142333Z 09004KT 34/04 A3015 RMK A01 T03390039  RH  015%=      5-min Rain = 0
KGU1 142334Z 11002KT 34/04 A3015 RMK A01 T03400037  RH  015%=      5-min Rain = 0
KGU1 142335Z 05003KT 34/04 A3015 RMK A01 T03400038  RH  015%=      5-min Rain = 0
KGU1 142336Z 04002KT 34/04 A3015 RMK A01 T03430042  RH  016%=      5-min Rain = 0
KGU1 142337Z 07002KT 34/04 A3015 RMK A01 T03440042  RH  015%=      5-min Rain = 0
KGU1 142338Z 07002KT 34/04 A3015 RMK A01 T03440042  RH  015%=      5-min Rain = 0
KGU1 142339Z 06003KT 34/04 A3015 RMK A01 T03440042  RH  015%=      5-min Rain = 0
KGU1 142340Z 07003KT 34/04 A3015 RMK A01 T03440044  RH  016%=      5-min Rain = 0
KGU1 142341Z 09003KT 35/05 A3015 RMK A01 T03470045  RH  016%=      5-min Rain = 0
KGU1 142342Z 09003KT 35/05 A3015 RMK A01 T03490046  RH  015%=      5-min Rain = 0
KGU1 142343Z 07003KT 35/05 A3015 RMK A01 T03500045  RH  015%=      5-min Rain = 0
KGU1 142344Z 05004KT 35/04 A3015 RMK A01 T03500043  RH  015%=      5-min Rain = 0
KGU1 142345Z 08003KT 35/04 A3015 RMK A01 T03490040  RH  015%=      5-min Rain = 0
KGU1 142346Z 08001KT 35/04 A3015 RMK A01 T03470038  RH  015%=      5-min Rain = 0
KGU1 142347Z 10001KT 35/04 A3015 RMK A01 T03450040  RH  015%=      5-min Rain = 0
KGU1 142348Z 11003KT 34/04 A3015 RMK A01 T03430040  RH  015%=      5-min Rain = 0
KGU1 142349Z 13005KT 34/04 A3015 RMK A01 T03420040  RH  015%=      5-min Rain = 0
KGU1 142350Z 13005KT 34/04 A3015 RMK A01 T03400040  RH  016%=      5-min Rain = 0
KGU1 142351Z 15004KT 34/04 A3015 RMK A01 T03390040  RH  016%=      5-min Rain = 0
KGU1 142352Z 15002KT 34/04 A3015 RMK A01 T03390041  RH  016%=      5-min Rain = 0
KGU1 142353Z 12003KT 34/04 A3015 RMK A01 T03380043  RH  016%=      5-min Rain = 0
KGU1 142354Z 04003KT 34/04 A3015 RMK A01 T03380044  RH  016%=      5-min Rain = 0
KGU1 142355Z 07003KT 34/04 A3015 RMK A01 T03390042  RH  016%=      5-min Rain = 0
KGU1 142356Z 04002KT 34/04 A3015 RMK A01 T03380042  RH  016%=      5-min Rain = 0
KGU1 142357Z 05005KT 34/04 A3015 RMK A01 T03380041  RH  016%=      5-min Rain = 0
KGU1 142358Z 05006KT 34/04 A3015 RMK A01 T03370040  RH  016%=      5-min Rain = 0
KGU1 142359Z 07006KT 34/04 A3015 RMK A01 T03370039  RH  016%=      5-min Rain = 0
KGU1 150000Z 06004KT 34/04 A3015 RMK A01 T03360040  RH  016%=      5-min Rain = 0
KGU1 150001Z 05005KT 34/04 A3015 RMK A01 T03360039  RH  016%=      5-min Rain = 0
KGU1 150002Z 06004KT 34/04 A3015 RMK A01 T03350037  RH  016%=      5-min Rain = 0
KGU1 150003Z 05003KT 33/04 A3015 RMK A01 T03340037  RH  016%=      5-min Rain = 0
KGU1 150004Z 03003KT 33/04 A3015 RMK A01 T03340037  RH  016%=      5-min Rain = 0
KGU1 150005Z 03003KT 33/04 A3015 RMK A01 T03340039  RH  016%=      5-min Rain = 0
KGU1 150006Z 03005KT 33/04 A3015 RMK A01 T03340041  RH  016%=      5-min Rain = 0
KGU1 150007Z 05005KT 33/04 A3015 RMK A01 T03340039  RH  016%=      5-min Rain = 0
KGU1 150008Z 05004KT 33/04 A3015 RMK A01 T03340040  RH  016%=      5-min Rain = 0
KGU1 150009Z 04004KT 33/04 A3015 RMK A01 T03340042  RH  016%=      5-min Rain = 0
KGU1 150010Z 05005KT 33/04 A3015 RMK A01 T03340041  RH  016%=      5-min Rain = 0
KGU1 150011Z 06006KT 33/04 A3015 RMK A01 T03340039  RH  016%=      5-min Rain = 0
KGU1 150012Z 09005KT 33/04 A3015 RMK A01 T03340039  RH  016%=      5-min Rain = 0
KGU1 150013Z 10005KT 33/04 A3015 RMK A01 T03330038  RH  016%=      5-min Rain = 0
KGU1 150014Z 07004KT 33/04 A3015 RMK A01 T03330041  RH  016%=      5-min Rain = 0
KGU1 150015Z 07004KT 33/04 A3015 RMK A01 T03330038  RH  016%=      5-min Rain = 0
KGU1 150016Z 06004KT 33/04 A3015 RMK A01 T03330039  RH  016%=      5-min Rain = 0
KGU1 150017Z 07004KT 33/04 A3015 RMK A01 T03330039  RH  016%=      5-min Rain = 0
KGU1 150018Z 07003KT 33/04 A3015 RMK A01 T03320036  RH  016%=      5-min Rain = 0
KGU1 150019Z 07003KT 33/04 A3015 RMK A01 T03320037  RH  016%=      5-min Rain = 0
KGU1 150020Z 08004KT 33/04 A3015 RMK A01 T03320039  RH  016%=      5-min Rain = 0
KGU1 150021Z 08003KT 33/04 A3015 RMK A01 T03320038  RH  016%=      5-min Rain = 0
KGU1 150022Z 07003KT 33/04 A3015 RMK A01 T03320039  RH  016%=      5-min Rain = 0
KGU1 150023Z 06004KT 33/04 A3015 RMK A01 T03320042  RH  017%=      5-min Rain = 0
KGU1 150024Z 07005KT 33/04 A3015 RMK A01 T03310043  RH  017%=      5-min Rain = 0
KGU1 150025Z 07005KT 33/04 A3015 RMK A01 T03310043  RH  017%=      5-min Rain = 0
KGU1 150026Z 07005KT 33/04 A3015 RMK A01 T03310041  RH  017%=      5-min Rain = 0
KGU1 150027Z 06004KT 33/04 A3015 RMK A01 T03310042  RH  017%=      5-min Rain = 0
KGU1 150028Z 06006KT 33/04 A3015 RMK A01 T03300043  RH  017%=      5-min Rain = 0
KGU1 150029Z 06006KT 33/04 A3015 RMK A01 T03300043  RH  017%=      5-min Rain = 0
KGU1 150030Z 06005KT 33/05 A3015 RMK A01 T03300045  RH  017%=      5-min Rain = 0
KGU1 150031Z 07006KT 33/04 A3015 RMK A01 T03290044  RH  017%=      5-min Rain = 0
KGU1 150032Z 07007KT 33/04 A3015 RMK A01 T03290044  RH  017%=      5-min Rain = 0
KGU1 150033Z 06007KT 33/04 A3015 RMK A01 T03290043  RH  017%=      5-min Rain = 0
KGU1 150034Z 07006KT 33/04 A3015 RMK A01 T03290044  RH  017%=      5-min Rain = 0
KGU1 150035Z 07006KT 33/04 A3015 RMK A01 T03290044  RH  017%=      5-min Rain = 0
KGU1 150036Z 07005KT 33/04 A3015 RMK A01 T03280044  RH  017%=      5-min Rain = 0
KGU1 150037Z 07005KT 33/05 A3015 RMK A01 T03280045  RH  017%=      5-min Rain = 0
KGU1 150038Z 07004KT 33/04 A3015 RMK A01 T03280044  RH  017%=      5-min Rain = 0
KGU1 150039Z 07003KT 33/05 A3015 RMK A01 T03280045  RH  017%=      5-min Rain = 0
KGU1 150040Z 06003KT 33/05 A3015 RMK A01 T03280046  RH  017%=      5-min Rain = 0
KGU1 150041Z 06003KT 33/05 A3015 RMK A01 T03280046  RH  017%=      5-min Rain = 0
KGU1 150042Z 07004KT 33/05 A3015 RMK A01 T03270046  RH  017%=      5-min Rain = 0
KGU1 150043Z 07004KT 33/05 A3015 RMK A01 T03270045  RH  017%=      5-min Rain = 0
KGU1 150044Z 07004KT 33/04 A3015 RMK A01 T03270044  RH  017%=      5-min Rain = 0
KGU1 150045Z 08004KT 33/05 A3015 RMK A01 T03260045  RH  017%=      5-min Rain = 0
KGU1 150046Z 08005KT 33/04 A3015 RMK A01 T03270044  RH  017%=      5-min Rain = 0
KGU1 150047Z 07004KT 33/04 A3015 RMK A01 T03260044  RH  017%=      5-min Rain = 0
KGU1 150048Z 06004KT 33/05 A3015 RMK A01 T03270045  RH  017%=      5-min Rain = 0
KGU1 150049Z 05004KT 33/05 A3015 RMK A01 T03270046  RH  018%=      5-min Rain = 0
KGU1 150050Z 06004KT 33/05 A3016 RMK A01 T03260046  RH  018%=      5-min Rain = 0
KGU1 150051Z 06005KT 33/05 A3016 RMK A01 T03260047  RH  018%=      5-min Rain = 0
KGU1 150052Z 07005KT 33/05 A3016 RMK A01 T03260046  RH  018%=      5-min Rain = 0
KGU1 150053Z 06004KT 33/05 A3016 RMK A01 T03260047  RH  018%=      5-min Rain = 0
KGU1 150054Z 06004KT 33/05 A3016 RMK A01 T03250048  RH  018%=      5-min Rain = 0
KGU1 150055Z 05004KT 33/05 A3016 RMK A01 T03250049  RH  018%=      5-min Rain = 0
KGU1 150056Z 05005KT 32/05 A3016 RMK A01 T03240049  RH  018%=      5-min Rain = 0
KGU1 150057Z 05004KT 32/05 A3016 RMK A01 T03230048  RH  018%=      5-min Rain = 0
KGU1 150058Z 05003KT 32/05 A3016 RMK A01 T03230049  RH  018%=      5-min Rain = 0
KGU1 150059Z 05004KT 32/05 A3016 RMK A01 T03230049  RH  018%=      5-min Rain = 0
KGU1 150100Z 06004KT 32/05 A3016 RMK A01 T03230049  RH  018%=      5-min Rain = 0
KGU1 150101Z 06004KT 32/05 A3016 RMK A01 T03230049  RH  018%=      5-min Rain = 0
KGU1 150102Z 06003KT 32/05 A3016 RMK A01 T03230050  RH  018%=      5-min Rain = 0
KGU1 150103Z 05003KT 32/05 A3016 RMK A01 T03220051  RH  019%=      5-min Rain = 0
KGU1 150104Z 06003KT 32/05 A3016 RMK A01 T03220051  RH  019%=      5-min Rain = 0
KGU1 150105Z 05003KT 32/05 A3016 RMK A01 T03210051  RH  019%=      5-min Rain = 0
KGU1 150106Z 06004KT 32/05 A3016 RMK A01 T03210051  RH  019%=      5-min Rain = 0
KGU1 150107Z 06004KT 32/05 A3016 RMK A01 T03200051  RH  019%=      5-min Rain = 0
KGU1 150108Z 05004KT 32/05 A3016 RMK A01 T03200052  RH  019%=      5-min Rain = 0
KGU1 150109Z 05004KT 32/05 A3016 RMK A01 T03190051  RH  019%=      5-min Rain = 0
KGU1 150110Z 05004KT 32/05 A3016 RMK A01 T03190052  RH  019%=      5-min Rain = 0
KGU1 150111Z 05004KT 32/05 A3016 RMK A01 T03190053  RH  019%=      5-min Rain = 0
KGU1 150112Z 05004KT 32/05 A3016 RMK A01 T03180053  RH  019%=      5-min Rain = 0
KGU1 150113Z 04004KT 32/05 A3016 RMK A01 T03180053  RH  019%=      5-min Rain = 0
KGU1 150114Z 04005KT 32/05 A3017 RMK A01 T03180053  RH  019%=      5-min Rain = 0
KGU1 150115Z 04005KT 32/05 A3017 RMK A01 T03170053  RH  019%=      5-min Rain = 0
KGU1 150116Z 04006KT 32/05 A3017 RMK A01 T03170053  RH  020%=      5-min Rain = 0
KGU1 150117Z 04008KT 32/05 A3017 RMK A01 T03170052  RH  019%=      5-min Rain = 0
KGU1 150118Z 04008KT 32/05 A3017 RMK A01 T03170052  RH  019%=      5-min Rain = 0
KGU1 150119Z 05009KT 32/05 A3017 RMK A01 T03160052  RH  019%=      5-min Rain = 0
KGU1 150120Z 04009KT 32/05 A3017 RMK A01 T03160053  RH  020%=      5-min Rain = 0
KGU1 150121Z 04009KT 32/05 A3017 RMK A01 T03150052  RH  020%=      5-min Rain = 0
KGU1 150122Z 03010KT 32/05 A3017 RMK A01 T03150051  RH  019%=      5-min Rain = 0
KGU1 150123Z 03008KT 32/05 A3017 RMK A01 T03150051  RH  019%=      5-min Rain = 0
KGU1 150124Z 03006KT 32/05 A3017 RMK A01 T03150053  RH  020%=      5-min Rain = 0
KGU1 150125Z 04007KT 31/05 A3017 RMK A01 T03140052  RH  020%=      5-min Rain = 0
KGU1 150126Z 04008KT 31/05 A3017 RMK A01 T03140050  RH  019%=      5-min Rain = 0
KGU1 150127Z 04007KT 31/05 A3017 RMK A01 T03140051  RH  019%=      5-min Rain = 0
KGU1 150128Z 05007KT 31/05 A3017 RMK A01 T03140050  RH  019%=      5-min Rain = 0
KGU1 150129Z 04006KT 31/05 A3017 RMK A01 T03140050  RH  019%=      5-min Rain = 0
KGU1 150130Z 03007KT 31/05 A3017 RMK A01 T03140050  RH  019%=      5-min Rain = 0
KGU1 150131Z 04005KT 31/05 A3017 RMK A01 T03140051  RH  020%=      5-min Rain = 0
KGU1 150132Z 04006KT 31/05 A3017 RMK A01 T03130050  RH  019%=      5-min Rain = 0
KGU1 150133Z 05006KT 31/05 A3017 RMK A01 T03140050  RH  019%=      5-min Rain = 0
KGU1 150134Z 05010KT 31/05 A3017 RMK A01 T03140049  RH  019%=      5-min Rain = 0
KGU1 150135Z 05011KT 32/05 A3017 RMK A01 T03150049  RH  019%=      5-min Rain = 0
KGU1 150136Z 06010KT 32/05 A3017 RMK A01 T03160049  RH  019%=      5-min Rain = 0
KGU1 150137Z 07008KT 32/05 A3017 RMK A01 T03160050  RH  019%=      5-min Rain = 0
KGU1 150138Z 06006KT 32/05 A3017 RMK A01 T03150051  RH  019%=      5-min Rain = 0
KGU1 150139Z 06008KT 32/05 A3017 RMK A01 T03150051  RH  019%=      5-min Rain = 0
KGU1 150140Z 05009KT 31/05 A3017 RMK A01 T03140051  RH  019%=      5-min Rain = 0
KGU1 150141Z 05009KT 31/05 A3017 RMK A01 T03140051  RH  020%=      5-min Rain = 0
KGU1 150142Z 05006KT 31/05 A3017 RMK A01 T03140051  RH  020%=      5-min Rain = 0
KGU1 150143Z 04006KT 31/05 A3017 RMK A01 T03130051  RH  020%=      5-min Rain = 0
KGU1 150144Z 04007KT 31/05 A3017 RMK A01 T03130051  RH  020%=      5-min Rain = 0
KGU1 150145Z 04005KT 31/05 A3017 RMK A01 T03130052  RH  020%=      5-min Rain = 0
KGU1 150146Z 03006KT 31/05 A3017 RMK A01 T03130052  RH  020%=      5-min Rain = 0
KGU1 150147Z 03007KT 31/05 A3018 RMK A01 T03120052  RH  020%=      5-min Rain = 0
KGU1 150148Z 03006KT 31/05 A3018 RMK A01 T03110052  RH  020%=      5-min Rain = 0
KGU1 150149Z 03005KT 31/05 A3018 RMK A01 T03110053  RH  020%=      5-min Rain = 0
KGU1 150150Z 02006KT 31/05 A3018 RMK A01 T03100053  RH  020%=      5-min Rain = 0
KGU1 150151Z 02006KT 31/05 A3018 RMK A01 T03090053  RH  020%=      5-min Rain = 0
KGU1 150152Z 02005KT 31/05 A3018 RMK A01 T03080053  RH  020%=      5-min Rain = 0
KGU1 150153Z 02005KT 31/05 A3018 RMK A01 T03080053  RH  021%=      5-min Rain = 0
KGU1 150154Z 02006KT 31/05 A3018 RMK A01 T03070052  RH  020%=      5-min Rain = 0
KGU1 150155Z 02005KT 31/05 A3018 RMK A01 T03080053  RH  020%=      5-min Rain = 0
KGU1 150156Z 01005KT 31/05 A3018 RMK A01 T03070054  RH  021%=      5-min Rain = 0
KGU1 150157Z 01005KT 31/05 A3018 RMK A01 T03070054  RH  021%=      5-min Rain = 0
KGU1 150158Z 02006KT 31/05 A3018 RMK A01 T03060054  RH  021%=      5-min Rain = 0
KGU1 150159Z 02006KT 31/05 A3018 RMK A01 T03060054  RH  021%=      5-min Rain = 0
KGU1 150200Z 02007KT 31/05 A3018 RMK A01 T03060054  RH  021%=      5-min Rain = 0
KGU1 150201Z 02007KT 31/05 A3018 RMK A01 T03060054  RH  021%=      5-min Rain = 0
KGU1 150202Z 02007KT 31/05 A3018 RMK A01 T03050053  RH  021%=      5-min Rain = 0
KGU1 150203Z 02007KT 31/05 A3018 RMK A01 T03060053  RH  021%=      5-min Rain = 0
KGU1 150204Z 02007KT 31/05 A3018 RMK A01 T03060053  RH  021%=      5-min Rain = 0
KGU1 150205Z 03007KT 31/05 A3018 RMK A01 T03060054  RH  021%=      5-min Rain = 0
KGU1 150206Z 03007KT 31/05 A3018 RMK A01 T03060054  RH  021%=      5-min Rain = 0
KGU1 150207Z 02006KT 31/05 A3018 RMK A01 T03060054  RH  021%=      5-min Rain = 0
KGU1 150208Z 02006KT 31/05 A3018 RMK A01 T03060054  RH  021%=      5-min Rain = 0
KGU1 150209Z 02005KT 31/05 A3018 RMK A01 T03050054  RH  021%=      5-min Rain = 0
KGU1 150210Z 02004KT 31/05 A3018 RMK A01 T03050054  RH  021%=      5-min Rain = 0
KGU1 150211Z 03003KT 31/06 A3018 RMK A01 T03050055  RH  021%=      5-min Rain = 0
KGU1 150212Z 02003KT 30/06 A3018 RMK A01 T03040055  RH  021%=      5-min Rain = 0
KGU1 150213Z 03003KT 30/06 A3018 RMK A01 T03030055  RH  021%=      5-min Rain = 0
KGU1 150214Z 04004KT 30/06 A3018 RMK A01 T03030055  RH  021%=      5-min Rain = 0
KGU1 150215Z 03005KT 30/05 A3018 RMK A01 T03020054  RH  021%=      5-min Rain = 0
KGU1 150216Z 03005KT 30/05 A3018 RMK A01 T03030054  RH  021%=      5-min Rain = 0
KGU1 150217Z 01005KT 30/05 A3018 RMK A01 T03040054  RH  021%=      5-min Rain = 0
KGU1 150218Z 02005KT 30/06 A3018 RMK A01 T03030055  RH  021%=      5-min Rain = 0
KGU1 150219Z 02004KT 30/05 A3018 RMK A01 T03030054  RH  021%=      5-min Rain = 0
KGU1 150220Z 02004KT 30/05 A3018 RMK A01 T03030054  RH  021%=      5-min Rain = 0
KGU1 150221Z 02005KT 30/06 A3018 RMK A01 T03030055  RH  021%=      5-min Rain = 0
KGU1 150222Z 02005KT 30/05 A3018 RMK A01 T03030054  RH  021%=      5-min Rain = 0
KGU1 150223Z 02004KT 30/05 A3018 RMK A01 T03030054  RH  021%=      5-min Rain = 0
KGU1 150224Z 02004KT 30/06 A3018 RMK A01 T03030055  RH  021%=      5-min Rain = 0
KGU1 150225Z 01004KT 30/06 A3018 RMK A01 T03020055  RH  021%=      5-min Rain = 0
KGU1 150226Z 01004KT 30/06 A3018 RMK A01 T03020055  RH  021%=      5-min Rain = 0
KGU1 150227Z 01004KT 30/06 A3018 RMK A01 T03020055  RH  021%=      5-min Rain = 0
KGU1 150228Z 01004KT 30/06 A3018 RMK A01 T03020055  RH  021%=      5-min Rain = 0
KGU1 150229Z 01004KT 30/06 A3018 RMK A01 T03010055  RH  022%=      5-min Rain = 0
KGU1 150230Z 01003KT 30/06 A3018 RMK A01 T03010055  RH  022%=      5-min Rain = 0
KGU1 150231Z 01003KT 30/06 A3018 RMK A01 T03020055  RH  022%=      5-min Rain = 0
KGU1 150232Z 02004KT 30/06 A3018 RMK A01 T03010055  RH  022%=      5-min Rain = 0
KGU1 150233Z 02005KT 30/05 A3018 RMK A01 T03020054  RH  021%=      5-min Rain = 0
KGU1 150234Z 02004KT 30/05 A3018 RMK A01 T03020053  RH  021%=      5-min Rain = 0
KGU1 150235Z 02004KT 30/05 A3018 RMK A01 T03030053  RH  021%=      5-min Rain = 0
KGU1 150236Z 02003KT 30/05 A3018 RMK A01 T03030054  RH  021%=      5-min Rain = 0
KGU1 150237Z 01002KT 30/05 A3019 RMK A01 T03030054  RH  021%=      5-min Rain = 0
KGU1 150238Z 01002KT 30/05 A3019 RMK A01 T03030054  RH  021%=      5-min Rain = 0
KGU1 150239Z 04002KT 30/06 A3019 RMK A01 T03030055  RH  021%=      5-min Rain = 0
KGU1 150240Z 04002KT 30/06 A3019 RMK A01 T03020055  RH  022%=      5-min Rain = 0
KGU1 150241Z 03003KT 30/06 A3019 RMK A01 T03010056  RH  022%=      5-min Rain = 0
KGU1 150242Z 02004KT 30/06 A3019 RMK A01 T03000056  RH  022%=      5-min Rain = 0
KGU1 150243Z 00003KT 30/05 A3019 RMK A01 T03000054  RH  022%=      5-min Rain = 0
KGU1 150244Z 35004KT 30/05 A3019 RMK A01 T03010054  RH  022%=      5-min Rain = 0
KGU1 150245Z 35004KT 30/05 A3019 RMK A01 T03010054  RH  021%=      5-min Rain = 0
KGU1 150246Z 35004KT 30/05 A3019 RMK A01 T03020053  RH  021%=      5-min Rain = 0
KGU1 150247Z 34004KT 30/05 A3019 RMK A01 T03030053  RH  021%=      5-min Rain = 0
KGU1 150248Z 34004KT 30/05 A3019 RMK A01 T03030054  RH  021%=      5-min Rain = 0
KGU1 150249Z 34004KT 30/06 A3019 RMK A01 T03040055  RH  021%=      5-min Rain = 0
KGU1 150250Z 34003KT 30/06 A3019 RMK A01 T03030055  RH  021%=      5-min Rain = 0
KGU1 150251Z 01004KT 30/05 A3019 RMK A01 T03040054  RH  021%=      5-min Rain = 0
KGU1 150252Z 01003KT 30/05 A3019 RMK A01 T03040053  RH  021%=      5-min Rain = 0
KGU1 150253Z 01003KT 31/05 A3019 RMK A01 T03050053  RH  021%=      5-min Rain = 0
KGU1 150254Z 00003KT 31/05 A3019 RMK A01 T03050053  RH  021%=      5-min Rain = 0
KGU1 150255Z 36004KT 30/05 A3019 RMK A01 T03040054  RH  021%=      5-min Rain = 0
KGU1 150256Z 36004KT 30/05 A3019 RMK A01 T03040053  RH  021%=      5-min Rain = 0
KGU1 150257Z 35005KT 30/05 A3019 RMK A01 T03040052  RH  021%=      5-min Rain = 0
KGU1 150258Z 35005KT 30/05 A3019 RMK A01 T03040053  RH  021%=      5-min Rain = 0
KGU1 150259Z 00006KT 30/05 A302 RMK A01 T03040052  RH  021%=      5-min Rain = 0
KGU1 150300Z 01006KT 31/05 A302 RMK A01 T03050052  RH  021%=      5-min Rain = 0
KGU1 150301Z 01006KT 31/05 A302 RMK A01 T03050051  RH  021%=      5-min Rain = 0
KGU1 150302Z 00005KT 31/05 A302 RMK A01 T03050052  RH  021%=      5-min Rain = 0
KGU1 150303Z 36005KT 31/05 A302 RMK A01 T03050052  RH  021%=      5-min Rain = 0
KGU1 150304Z 34005KT 30/05 A302 RMK A01 T03040053  RH  021%=      5-min Rain = 0
KGU1 150305Z 35006KT 30/05 A302 RMK A01 T03030053  RH  021%=      5-min Rain = 0
KGU1 150306Z 36006KT 30/05 A302 RMK A01 T03030051  RH  021%=      5-min Rain = 0
KGU1 150307Z 35005KT 30/05 A302 RMK A01 T03040051  RH  021%=      5-min Rain = 0
KGU1 150308Z 34005KT 31/05 A302 RMK A01 T03050052  RH  021%=      5-min Rain = 0
KGU1 150309Z 35006KT 30/05 A302 RMK A01 T03040050  RH  021%=      5-min Rain = 0
KGU1 150310Z 35007KT 31/05 A302 RMK A01 T03050050  RH  020%=      5-min Rain = 0
KGU1 150311Z 36007KT 31/05 A302 RMK A01 T03050050  RH  020%=      5-min Rain = 0
KGU1 150312Z 36007KT 31/05 A302 RMK A01 T03050051  RH  021%=      5-min Rain = 0
KGU1 150313Z 01006KT 31/05 A302 RMK A01 T03050051  RH  021%=      5-min Rain = 0
KGU1 150314Z 01007KT 30/05 A302 RMK A01 T03040051  RH  021%=      5-min Rain = 0
KGU1 150315Z 01006KT 30/05 A302 RMK A01 T03040051  RH  021%=      5-min Rain = 0
KGU1 150316Z 00006KT 30/05 A302 RMK A01 T03040051  RH  021%=      5-min Rain = 0
KGU1 150317Z 01006KT 31/05 A302 RMK A01 T03050050  RH  020%=      5-min Rain = 0
KGU1 150318Z 01007KT 31/05 A302 RMK A01 T03060050  RH  020%=      5-min Rain = 0
KGU1 150319Z 01006KT 31/05 A302 RMK A01 T03070051  RH  020%=      5-min Rain = 0
KGU1 150320Z 01006KT 31/05 A302 RMK A01 T03060052  RH  021%=      5-min Rain = 0
KGU1 150321Z 00004KT 31/05 A302 RMK A01 T03060051  RH  020%=      5-min Rain = 0
KGU1 150322Z 00005KT 31/05 A302 RMK A01 T03060051  RH  021%=      5-min Rain = 0
KGU1 150323Z 02005KT 31/05 A302 RMK A01 T03050052  RH  021%=      5-min Rain = 0
KGU1 150324Z 03007KT 30/05 A302 RMK A01 T03040052  RH  021%=      5-min Rain = 0
KGU1 150325Z 03006KT 30/05 A302 RMK A01 T03040051  RH  021%=      5-min Rain = 0
KGU1 150326Z 03005KT 31/05 A302 RMK A01 T03060051  RH  020%=      5-min Rain = 0
KGU1 150327Z 03005KT 31/05 A302 RMK A01 T03060052  RH  021%=      5-min Rain = 0
KGU1 150328Z 02008KT 31/05 A302 RMK A01 T03050052  RH  021%=      5-min Rain = 0
KGU1 150329Z 02008KT 31/05 A302 RMK A01 T03060051  RH  021%=      5-min Rain = 0
KGU1 150330Z 02007KT 31/05 A302 RMK A01 T03060051  RH  020%=      5-min Rain = 0
KGU1 150331Z 02006KT 31/05 A302 RMK A01 T03070052  RH  021%=      5-min Rain = 0
KGU1 150332Z 02006KT 31/05 A302 RMK A01 T03060053  RH  021%=      5-min Rain = 0
KGU1 150333Z 03005KT 31/05 A302 RMK A01 T03050052  RH  021%=      5-min Rain = 0
KGU1 150334Z 02006KT 30/05 A302 RMK A01 T03040052  RH  021%=      5-min Rain = 0
KGU1 150335Z 02005KT 30/05 A3021 RMK A01 T03040053  RH  021%=      5-min Rain = 0
KGU1 150336Z 01005KT 30/05 A3021 RMK A01 T03030054  RH  021%=      5-min Rain = 0
KGU1 150337Z 01004KT 30/05 A3021 RMK A01 T03010054  RH  021%=      5-min Rain = 0
KGU1 150338Z 01004KT 30/05 A3021 RMK A01 T03000054  RH  022%=      5-min Rain = 0
KGU1 150339Z 01004KT 30/05 A3021 RMK A01 T02990054  RH  022%=      5-min Rain = 0
KGU1 150340Z 35004KT 30/05 A3021 RMK A01 T02990054  RH  022%=      5-min Rain = 0
KGU1 150341Z 00003KT 30/05 A3021 RMK A01 T02980054  RH  022%=      5-min Rain = 0
KGU1 150342Z 01002KT 30/05 A3021 RMK A01 T02990054  RH  022%=      5-min Rain = 0
KGU1 150343Z 01002KT 30/05 A3021 RMK A01 T02990054  RH  022%=      5-min Rain = 0
KGU1 150344Z 35002KT 30/05 A3021 RMK A01 T02990054  RH  022%=      5-min Rain = 0
KGU1 150345Z 35003KT 30/05 A3021 RMK A01 T02980053  RH  022%=      5-min Rain = 0
KGU1 150346Z 34004KT 30/05 A3021 RMK A01 T02990054  RH  022%=      5-min Rain = 0
KGU1 150347Z 34005KT 30/05 A3021 RMK A01 T02990054  RH  022%=      5-min Rain = 0
KGU1 150348Z 36005KT 30/05 A3021 RMK A01 T02980053  RH  022%=      5-min Rain = 0
KGU1 150349Z 34005KT 30/05 A3021 RMK A01 T02990054  RH  022%=      5-min Rain = 0
KGU1 150350Z 33005KT 30/05 A3021 RMK A01 T02990053  RH  022%=      5-min Rain = 0
KGU1 150351Z 32006KT 30/05 A3021 RMK A01 T02990053  RH  022%=      5-min Rain = 0
KGU1 150352Z 31006KT 30/05 A3021 RMK A01 T02990053  RH  022%=      5-min Rain = 0
KGU1 150353Z 30006KT 30/05 A3021 RMK A01 T02990053  RH  022%=      5-min Rain = 0
KGU1 150354Z 31005KT 30/05 A3021 RMK A01 T03000052  RH  021%=      5-min Rain = 0
KGU1 150355Z 31006KT 30/05 A3021 RMK A01 T03010052  RH  021%=      5-min Rain = 0
KGU1 150356Z 32006KT 30/05 A3021 RMK A01 T03020053  RH  021%=      5-min Rain = 0
KGU1 150357Z 34005KT 30/05 A3021 RMK A01 T03020054  RH  021%=      5-min Rain = 0
KGU1 150358Z 33010KT 30/06 A3021 RMK A01 T03010056  RH  022%=      5-min Rain = 0
KGU1 150359Z 32010KT 30/06 A3021 RMK A01 T03010059  RH  022%=      5-min Rain = 0
KGU1 150400Z 34010KT 30/06 A3021 RMK A01 T03010061  RH  023%=      5-min Rain = 0
KGU1 150401Z 34013KT 30/06 A3021 RMK A01 T03000063  RH  023%=      5-min Rain = 0
KGU1 150402Z 33014KT 30/06 A3021 RMK A01 T02990064  RH  023%=      5-min Rain = 0
KGU1 150403Z 33012KT 30/06 A3021 RMK A01 T02990063  RH  023%=      5-min Rain = 0
KGU1 150404Z 33012KT 30/06 A3021 RMK A01 T02980064  RH  023%=      5-min Rain = 0
KGU1 150405Z 33013KT 30/06 A3021 RMK A01 T02970064  RH  024%=      5-min Rain = 0
KGU1 150406Z 33014KT 30/06 A3021 RMK A01 T02960064  RH  024%=      5-min Rain = 0
KGU1 150407Z 34013KT 30/06 A3021 RMK A01 T02960064  RH  024%=      5-min Rain = 0
KGU1 150408Z 34011KT 30/06 A3021 RMK A01 T02960064  RH  024%=      5-min Rain = 0
KGU1 150409Z 34011KT 30/06 A3021 RMK A01 T02960064  RH  024%=      5-min Rain = 0
KGU1 150410Z 33014KT 30/06 A3021 RMK A01 T02960064  RH  024%=      5-min Rain = 0
KGU1 150411Z 33012KT 30/06 A3021 RMK A01 T02970064  RH  024%=      5-min Rain = 0
KGU1 150412Z 33011KT 30/06 A3021 RMK A01 T02970063  RH  024%=      5-min Rain = 0
KGU1 150413Z 33013KT 30/06 A3021 RMK A01 T02960063  RH  024%=      5-min Rain = 0
KGU1 150414Z 33014KT 30/06 A3021 RMK A01 T02960064  RH  024%=      5-min Rain = 0
KGU1 150415Z 33011G17KT 30/06 A3021 RMK A01 T02960064  RH  024%=      5-min Rain = 0
KGU1 150416Z 34014KT 30/06 A3021 RMK A01 T02950063  RH  024%=      5-min Rain = 0
KGU1 150417Z 34013KT 30/06 A3021 RMK A01 T02960064  RH  024%=      5-min Rain = 0
KGU1 150418Z 33014KT 30/06 A3022 RMK A01 T02960064  RH  024%=      5-min Rain = 0
KGU1 150419Z 33013KT 30/06 A3022 RMK A01 T02960064  RH  024%=      5-min Rain = 0
KGU1 150420Z 33016KT 30/07 A3022 RMK A01 T02960065  RH  024%=      5-min Rain = 0
KGU1 150421Z 32014KT 30/07 A3022 RMK A01 T02960065  RH  024%=      5-min Rain = 0
KGU1 150422Z 33013KT 30/07 A3022 RMK A01 T02950065  RH  024%=      5-min Rain = 0
KGU1 150423Z 33013KT 29/07 A3022 RMK A01 T02940065  RH  024%=      5-min Rain = 0
KGU1 150424Z 33015KT 29/07 A3022 RMK A01 T02940065  RH  024%=      5-min Rain = 0
KGU1 150425Z 33010KT 29/07 A3022 RMK A01 T02940065  RH  024%=      5-min Rain = 0
KGU1 150426Z 33012KT 29/07 A3022 RMK A01 T02940065  RH  024%=      5-min Rain = 0
KGU1 150427Z 32012KT 29/07 A3022 RMK A01 T02940065  RH  024%=      5-min Rain = 0
KGU1 150428Z 33012KT 30/07 A3022 RMK A01 T02950065  RH  024%=      5-min Rain = 0
KGU1 150429Z 32009KT 30/07 A3022 RMK A01 T02950065  RH  024%=      5-min Rain = 0
KGU1 150430Z 33013KT 30/07 A3022 RMK A01 T02950065  RH  024%=      5-min Rain = 0
KGU1 150431Z 33009KT 30/07 A3022 RMK A01 T02960065  RH  024%=      5-min Rain = 0
KGU1 150432Z 33011G16KT 30/07 A3022 RMK A01 T02960066  RH  024%=      5-min Rain = 0
KGU1 150433Z 33013KT 30/07 A3022 RMK A01 T02950066  RH  024%=      5-min Rain = 0
KGU1 150434Z 33012KT 30/07 A3022 RMK A01 T02950065  RH  024%=      5-min Rain = 0
KGU1 150435Z 33012KT 30/07 A3022 RMK A01 T02950065  RH  024%=      5-min Rain = 0
KGU1 150436Z 33011KT 30/07 A3022 RMK A01 T02950065  RH  024%=      5-min Rain = 0
KGU1 150437Z 33012KT 30/07 A3022 RMK A01 T02950065  RH  024%=      5-min Rain = 0
KGU1 150438Z 34009KT 30/06 A3022 RMK A01 T02960061  RH  023%=      5-min Rain = 0
KGU1 150439Z 33009KT 30/06 A3022 RMK A01 T02970063  RH  024%=      5-min Rain = 0
KGU1 150440Z 34014KT 30/06 A3022 RMK A01 T02960064  RH  024%=      5-min Rain = 0
KGU1 150441Z 33013KT 30/07 A3022 RMK A01 T02960065  RH  024%=      5-min Rain = 0
KGU1 150442Z 32013KT 30/06 A3022 RMK A01 T02970064  RH  024%=      5-min Rain = 0
KGU1 150443Z 34013KT 30/07 A3022 RMK A01 T02970065  RH  024%=      5-min Rain = 0
KGU1 150444Z 33010KT 30/07 A3022 RMK A01 T02960066  RH  024%=      5-min Rain = 0
KGU1 150445Z 33014KT 30/07 A3022 RMK A01 T02960066  RH  024%=      5-min Rain = 0
KGU1 150446Z 33012KT 30/07 A3022 RMK A01 T02950067  RH  024%=      5-min Rain = 0
KGU1 150447Z 33012KT 30/07 A3022 RMK A01 T02950067  RH  024%=      5-min Rain = 0
KGU1 150448Z 33014KT 30/07 A3022 RMK A01 T02950065  RH  024%=      5-min Rain = 0
KGU1 150449Z 33014G19KT 30/07 A3022 RMK A01 T02960066  RH  024%=      5-min Rain = 0
KGU1 150450Z 33014KT 30/07 A3022 RMK A01 T02970065  RH  024%=      5-min Rain = 0
KGU1 150451Z 33013KT 30/07 A3022 RMK A01 T02960067  RH  024%=      5-min Rain = 0
KGU1 150452Z 33015KT 30/07 A3022 RMK A01 T02960067  RH  024%=      5-min Rain = 0
KGU1 150453Z 33012KT 30/07 A3022 RMK A01 T02950068  RH  024%=      5-min Rain = 0
KGU1 150454Z 34015KT 29/07 A3022 RMK A01 T02940068  RH  025%=      5-min Rain = 0
KGU1 150455Z 34012KT 29/07 A3022 RMK A01 T02930068  RH  025%=      5-min Rain = 0
KGU1 150456Z 33013KT 29/07 A3022 RMK A01 T02930066  RH  025%=      5-min Rain = 0
KGU1 150457Z 33012KT 30/07 A3022 RMK A01 T02950065  RH  024%=      5-min Rain = 0
KGU1 150458Z 33013KT 30/07 A3022 RMK A01 T02960066  RH  024%=      5-min Rain = 0
KGU1 150459Z 33013KT 30/07 A3022 RMK A01 T02960066  RH  024%=      5-min Rain = 0

Page generated in 0.0966 seconds.